<?xml version="1.0" encoding="UTF-8" standalone="no" ?>
<gpx xmlns="http://www.topografix.com/GPX/1/1" xmlns:xsi="http://www.w3.org/2001/XMLSchema-instance" xsi:schemaLocation="http://www.topografix.com/GPX/1/1 http://www.topografix.com/GPX/1/1/gpx.xsd" version="1.1" creator="VisuGPX - https://www.visugpx.com">
  <metadata>
    <name>Boucle Eveux - la chapelle de Fouillet</name>
    <desc><![CDATA[circuit au départ d'Eveux vers la chapelle de Fouillet]]></desc>
  </metadata>
  <wpt lat="45.82577" lon="4.62402">
    <ele>316.7</ele>
    <name><![CDATA[Parking dans Eveux]]></name>
    <type><![CDATA[pk]]></type>
  </wpt>
  <trk>
    <name><![CDATA[Boucle Eveux - la chapelle de Fouillet_1]]></name>
    <trkseg>
      <trkpt lat="45.82638" lon="4.62472">
        <ele>315.2</ele>
        <extensions>
          <visugpx:TrkExtension xmlns:visugpx="https://www.visugpx.com/editgpx/">
            <visugpx:node>12</visugpx:node>
            </visugpx:TrkExtension>
        </extensions>
      </trkpt>
      <trkpt lat="45.82648" lon="4.62484">
        <ele>314.7</ele>
        <extensions>
          <visugpx:TrkExtension xmlns:visugpx="https://www.visugpx.com/editgpx/">
            <visugpx:node>8</visugpx:node>
            </visugpx:TrkExtension>
        </extensions>
      </trkpt>
      <trkpt lat="45.82651" lon="4.62486">
        <ele>314.5</ele>
      </trkpt>
      <trkpt lat="45.82686" lon="4.62514">
        <ele>310.6</ele>
      </trkpt>
      <trkpt lat="45.82688" lon="4.62516">
        <ele>310.4</ele>
      </trkpt>
      <trkpt lat="45.8269" lon="4.62519">
        <ele>310.3</ele>
      </trkpt>
      <trkpt lat="45.827" lon="4.62532">
        <ele>309.6</ele>
      </trkpt>
      <trkpt lat="45.82716" lon="4.62561">
        <ele>308.9</ele>
      </trkpt>
      <trkpt lat="45.8273" lon="4.62591">
        <ele>308.5</ele>
      </trkpt>
      <trkpt lat="45.82743" lon="4.62618">
        <ele>308.8</ele>
      </trkpt>
      <trkpt lat="45.82757" lon="4.62652">
        <ele>305.1</ele>
      </trkpt>
      <trkpt lat="45.82761" lon="4.6267">
        <ele>306.3</ele>
      </trkpt>
      <trkpt lat="45.82761" lon="4.62673">
        <ele>306.3</ele>
      </trkpt>
      <trkpt lat="45.82763" lon="4.62693">
        <ele>306.6</ele>
      </trkpt>
      <trkpt lat="45.82765" lon="4.62715">
        <ele>306.7</ele>
      </trkpt>
      <trkpt lat="45.82769" lon="4.62739">
        <ele>306.8</ele>
      </trkpt>
      <trkpt lat="45.8278" lon="4.62772">
        <ele>311</ele>
      </trkpt>
      <trkpt lat="45.82788" lon="4.62785">
        <ele>311.9</ele>
      </trkpt>
      <trkpt lat="45.82808" lon="4.628">
        <ele>312.8</ele>
      </trkpt>
      <trkpt lat="45.82821" lon="4.62808">
        <ele>313.5</ele>
      </trkpt>
      <trkpt lat="45.82825" lon="4.6281">
        <ele>313.7</ele>
      </trkpt>
      <trkpt lat="45.82872" lon="4.62834">
        <ele>321.5</ele>
      </trkpt>
      <trkpt lat="45.82885" lon="4.62845">
        <ele>322.4</ele>
      </trkpt>
      <trkpt lat="45.82898" lon="4.62863">
        <ele>323.2</ele>
      </trkpt>
      <trkpt lat="45.82951" lon="4.62948">
        <ele>331.3</ele>
      </trkpt>
      <trkpt lat="45.82957" lon="4.62936">
        <ele>331.6</ele>
        <extensions>
          <visugpx:TrkExtension xmlns:visugpx="https://www.visugpx.com/editgpx/">
            <visugpx:node>9</visugpx:node>
            </visugpx:TrkExtension>
        </extensions>
      </trkpt>
      <trkpt lat="45.82951" lon="4.62948">
        <ele>331.3</ele>
      </trkpt>
      <trkpt lat="45.8297" lon="4.62971">
        <ele>332.4</ele>
      </trkpt>
      <trkpt lat="45.83064" lon="4.63065">
        <ele>334.7</ele>
      </trkpt>
      <trkpt lat="45.83091" lon="4.63091">
        <ele>334.1</ele>
        <extensions>
          <visugpx:TrkExtension xmlns:visugpx="https://www.visugpx.com/editgpx/">
            <visugpx:node>11</visugpx:node>
            </visugpx:TrkExtension>
        </extensions>
      </trkpt>
      <trkpt lat="45.831" lon="4.631">
        <ele>344.60000610352</ele>
        <time>2020-10-09T07:32:06.916Z</time>
      </trkpt>
      <trkpt lat="45.83095" lon="4.63105">
        <ele>344.79998779297</ele>
        <time>2020-10-09T07:32:12.336Z</time>
      </trkpt>
      <trkpt lat="45.83091" lon="4.63113">
        <ele>345</ele>
        <time>2020-10-09T07:32:17.759Z</time>
      </trkpt>
      <trkpt lat="45.83075" lon="4.63145">
        <ele>345.20001220703</ele>
        <time>2020-10-09T07:32:23.193Z</time>
      </trkpt>
      <trkpt lat="45.83069" lon="4.63157">
        <ele>346</ele>
        <time>2020-10-09T07:32:28.632Z</time>
      </trkpt>
      <trkpt lat="45.8306" lon="4.63171">
        <ele>346.60000610352</ele>
        <time>2020-10-09T07:32:34.076Z</time>
      </trkpt>
      <trkpt lat="45.83052" lon="4.63185">
        <ele>347</ele>
        <time>2020-10-09T07:32:39.526Z</time>
      </trkpt>
      <trkpt lat="45.83043" lon="4.63198">
        <ele>348.20001220703</ele>
        <time>2020-10-09T07:32:44.981Z</time>
      </trkpt>
      <trkpt lat="45.83034" lon="4.6321">
        <ele>349.20001220703</ele>
        <time>2020-10-09T07:32:50.442Z</time>
      </trkpt>
      <trkpt lat="45.83023" lon="4.63226">
        <ele>350</ele>
        <time>2020-10-09T07:32:55.909Z</time>
      </trkpt>
      <trkpt lat="45.83019" lon="4.63232">
        <ele>350.20001220703</ele>
        <time>2020-10-09T07:33:01.379Z</time>
      </trkpt>
      <trkpt lat="45.8301" lon="4.63245">
        <ele>351.39999389648</ele>
        <time>2020-10-09T07:33:06.854Z</time>
      </trkpt>
      <trkpt lat="45.83004" lon="4.63252">
        <ele>352.39999389648</ele>
        <time>2020-10-09T07:33:12.332Z</time>
      </trkpt>
      <trkpt lat="45.82991" lon="4.63261">
        <ele>353.60000610352</ele>
        <time>2020-10-09T07:33:17.816Z</time>
      </trkpt>
      <trkpt lat="45.82989" lon="4.63262">
        <ele>354</ele>
        <time>2020-10-09T07:33:23.302Z</time>
      </trkpt>
      <trkpt lat="45.82983" lon="4.63265">
        <ele>354.79998779297</ele>
        <time>2020-10-09T07:33:28.790Z</time>
      </trkpt>
      <trkpt lat="45.82971" lon="4.63272">
        <ele>356</ele>
        <time>2020-10-09T07:33:34.284Z</time>
      </trkpt>
      <trkpt lat="45.82959" lon="4.63278">
        <ele>356.79998779297</ele>
        <time>2020-10-09T07:33:39.783Z</time>
      </trkpt>
      <trkpt lat="45.82956" lon="4.6328">
        <ele>357</ele>
        <time>2020-10-09T07:33:45.283Z</time>
      </trkpt>
      <trkpt lat="45.82945" lon="4.63286">
        <ele>358</ele>
        <time>2020-10-09T07:33:50.789Z</time>
      </trkpt>
      <trkpt lat="45.8293" lon="4.63292">
        <ele>359.20001220703</ele>
        <time>2020-10-09T07:33:56.301Z</time>
      </trkpt>
      <trkpt lat="45.82927" lon="4.63293">
        <ele>359.39999389648</ele>
        <time>2020-10-09T07:34:01.814Z</time>
      </trkpt>
      <trkpt lat="45.82919" lon="4.63297">
        <ele>360.20001220703</ele>
        <time>2020-10-09T07:34:07.331Z</time>
      </trkpt>
      <trkpt lat="45.82908" lon="4.63302">
        <ele>361.39999389648</ele>
        <time>2020-10-09T07:34:12.853Z</time>
      </trkpt>
      <trkpt lat="45.82893" lon="4.63306">
        <ele>362.60000610352</ele>
        <time>2020-10-09T07:34:18.382Z</time>
      </trkpt>
      <trkpt lat="45.82887" lon="4.63307">
        <ele>363</ele>
        <time>2020-10-09T07:34:23.913Z</time>
      </trkpt>
      <trkpt lat="45.82881" lon="4.63309">
        <ele>363.60000610352</ele>
        <time>2020-10-09T07:34:29.447Z</time>
      </trkpt>
      <trkpt lat="45.82865" lon="4.63313">
        <ele>364.79998779297</ele>
        <time>2020-10-09T07:34:34.988Z</time>
      </trkpt>
      <trkpt lat="45.82855" lon="4.63315">
        <ele>365.39999389648</ele>
        <time>2020-10-09T07:34:40.533Z</time>
      </trkpt>
      <trkpt lat="45.82842" lon="4.63318">
        <ele>365.79998779297</ele>
        <time>2020-10-09T07:34:46.084Z</time>
      </trkpt>
      <trkpt lat="45.82829" lon="4.6332">
        <ele>366.79998779297</ele>
        <time>2020-10-09T07:34:51.640Z</time>
      </trkpt>
      <trkpt lat="45.82806" lon="4.6333">
        <ele>367.79998779297</ele>
        <time>2020-10-09T07:34:57.206Z</time>
      </trkpt>
      <trkpt lat="45.82803" lon="4.63331">
        <ele>368</ele>
        <time>2020-10-09T07:35:02.774Z</time>
      </trkpt>
      <trkpt lat="45.82782" lon="4.63345">
        <ele>369</ele>
        <time>2020-10-09T07:35:08.352Z</time>
      </trkpt>
      <trkpt lat="45.82778" lon="4.63347">
        <ele>369.20001220703</ele>
        <time>2020-10-09T07:35:13.931Z</time>
      </trkpt>
      <trkpt lat="45.82756" lon="4.63362">
        <ele>370</ele>
        <time>2020-10-09T07:35:19.521Z</time>
      </trkpt>
      <trkpt lat="45.82745" lon="4.6337">
        <ele>370.20001220703</ele>
        <time>2020-10-09T07:35:25.116Z</time>
      </trkpt>
      <trkpt lat="45.82728" lon="4.63381">
        <ele>371</ele>
        <time>2020-10-09T07:35:30.719Z</time>
      </trkpt>
      <trkpt lat="45.82721" lon="4.63386">
        <ele>371.60000610352</ele>
        <time>2020-10-09T07:35:36.325Z</time>
      </trkpt>
      <trkpt lat="45.82715" lon="4.63392">
        <ele>372</ele>
        <time>2020-10-09T07:35:41.934Z</time>
      </trkpt>
      <trkpt lat="45.82699" lon="4.63408">
        <ele>373</ele>
        <time>2020-10-09T07:35:47.552Z</time>
      </trkpt>
      <trkpt lat="45.82686" lon="4.63433">
        <ele>374.20001220703</ele>
        <time>2020-10-09T07:35:53.179Z</time>
      </trkpt>
      <trkpt lat="45.82685" lon="4.63437">
        <ele>374.60000610352</ele>
        <time>2020-10-09T07:35:58.807Z</time>
      </trkpt>
      <trkpt lat="45.82681" lon="4.6345">
        <ele>375.60000610352</ele>
        <time>2020-10-09T07:36:04.439Z</time>
      </trkpt>
      <trkpt lat="45.82676" lon="4.63466">
        <ele>377</ele>
        <time>2020-10-09T07:36:10.077Z</time>
      </trkpt>
      <trkpt lat="45.82675" lon="4.63471">
        <ele>377</ele>
        <time>2020-10-09T07:36:15.716Z</time>
      </trkpt>
      <trkpt lat="45.82672" lon="4.63488">
        <ele>378</ele>
        <time>2020-10-09T07:36:21.361Z</time>
      </trkpt>
      <trkpt lat="45.82669" lon="4.63506">
        <ele>379.20001220703</ele>
        <time>2020-10-09T07:36:27.011Z</time>
      </trkpt>
      <trkpt lat="45.82669" lon="4.6351">
        <ele>379.60000610352</ele>
        <time>2020-10-09T07:36:32.662Z</time>
      </trkpt>
      <trkpt lat="45.82668" lon="4.63519">
        <ele>380.60000610352</ele>
        <time>2020-10-09T07:36:38.316Z</time>
      </trkpt>
      <trkpt lat="45.82668" lon="4.63538">
        <ele>381.79998779297</ele>
        <time>2020-10-09T07:36:43.975Z</time>
      </trkpt>
      <trkpt lat="45.82668" lon="4.63546">
        <ele>382.20001220703</ele>
        <time>2020-10-09T07:36:49.637Z</time>
      </trkpt>
      <trkpt lat="45.82668" lon="4.63552">
        <ele>382.60000610352</ele>
        <time>2020-10-09T07:36:55.301Z</time>
      </trkpt>
      <trkpt lat="45.82666" lon="4.63556">
        <ele>383</ele>
        <time>2020-10-09T07:37:00.966Z</time>
      </trkpt>
      <trkpt lat="45.82666" lon="4.63556">
        <ele>383.39999389648</ele>
        <time>2020-10-09T07:37:06.631Z</time>
      </trkpt>
      <trkpt lat="45.82666" lon="4.63556">
        <ele>384.20001220703</ele>
        <time>2020-10-09T07:37:12.296Z</time>
      </trkpt>
      <trkpt lat="45.82666" lon="4.63556">
        <ele>384.79998779297</ele>
        <time>2020-10-09T07:37:17.961Z</time>
      </trkpt>
      <trkpt lat="45.82665" lon="4.63557">
        <ele>384.79998779297</ele>
        <time>2020-10-09T07:37:23.627Z</time>
      </trkpt>
      <trkpt lat="45.82661" lon="4.63557">
        <ele>384.79998779297</ele>
        <time>2020-10-09T07:37:29.294Z</time>
      </trkpt>
      <trkpt lat="45.82658" lon="4.63554">
        <ele>384.79998779297</ele>
        <time>2020-10-09T07:37:34.963Z</time>
      </trkpt>
      <trkpt lat="45.82649" lon="4.63548">
        <ele>384.60000610352</ele>
        <time>2020-10-09T07:37:40.636Z</time>
      </trkpt>
      <trkpt lat="45.82638" lon="4.63539">
        <ele>384.39999389648</ele>
        <time>2020-10-09T07:37:46.315Z</time>
      </trkpt>
      <trkpt lat="45.82629" lon="4.63532">
        <ele>384.20001220703</ele>
        <time>2020-10-09T07:37:51.998Z</time>
      </trkpt>
      <trkpt lat="45.8262" lon="4.63525">
        <ele>384</ele>
        <time>2020-10-09T07:37:57.685Z</time>
      </trkpt>
      <trkpt lat="45.82604" lon="4.63515">
        <ele>382.79998779297</ele>
        <time>2020-10-09T07:38:03.380Z</time>
      </trkpt>
      <trkpt lat="45.82599" lon="4.63511">
        <ele>382.39999389648</ele>
        <time>2020-10-09T07:38:09.077Z</time>
      </trkpt>
      <trkpt lat="45.82577" lon="4.63494">
        <ele>381.60000610352</ele>
        <time>2020-10-09T07:38:14.785Z</time>
      </trkpt>
      <trkpt lat="45.8256" lon="4.63482">
        <ele>380.39999389648</ele>
        <time>2020-10-09T07:38:20.501Z</time>
      </trkpt>
      <trkpt lat="45.82539" lon="4.63467">
        <ele>379.20001220703</ele>
        <time>2020-10-09T07:38:26.227Z</time>
      </trkpt>
      <trkpt lat="45.82523" lon="4.63457">
        <ele>378</ele>
        <time>2020-10-09T07:38:31.960Z</time>
      </trkpt>
      <trkpt lat="45.82507" lon="4.63446">
        <ele>377.20001220703</ele>
        <time>2020-10-09T07:38:37.701Z</time>
      </trkpt>
      <trkpt lat="45.82497" lon="4.63439">
        <ele>377</ele>
        <time>2020-10-09T07:38:43.447Z</time>
      </trkpt>
      <trkpt lat="45.82477" lon="4.63426">
        <ele>376.79998779297</ele>
        <time>2020-10-09T07:38:49.202Z</time>
      </trkpt>
      <trkpt lat="45.82469" lon="4.63419">
        <ele>376.79998779297</ele>
        <time>2020-10-09T07:38:54.961Z</time>
      </trkpt>
      <trkpt lat="45.82442" lon="4.63402">
        <ele>377</ele>
        <time>2020-10-09T07:39:00.732Z</time>
      </trkpt>
      <trkpt lat="45.82423" lon="4.63392">
        <ele>377.20001220703</ele>
        <time>2020-10-09T07:39:06.512Z</time>
      </trkpt>
      <trkpt lat="45.82416" lon="4.6339">
        <ele>377.60000610352</ele>
        <time>2020-10-09T07:39:12.295Z</time>
      </trkpt>
      <trkpt lat="45.82402" lon="4.63382">
        <ele>378</ele>
        <time>2020-10-09T07:39:18.085Z</time>
      </trkpt>
      <trkpt lat="45.82395" lon="4.63378">
        <ele>378.39999389648</ele>
        <time>2020-10-09T07:39:23.878Z</time>
      </trkpt>
      <trkpt lat="45.82385" lon="4.63374">
        <ele>379</ele>
        <time>2020-10-09T07:39:29.675Z</time>
      </trkpt>
      <trkpt lat="45.82372" lon="4.63369">
        <ele>380.20001220703</ele>
        <time>2020-10-09T07:39:35.478Z</time>
      </trkpt>
      <trkpt lat="45.82368" lon="4.63367">
        <ele>380.20001220703</ele>
        <time>2020-10-09T07:39:41.283Z</time>
      </trkpt>
      <trkpt lat="45.82358" lon="4.63363">
        <ele>381.39999389648</ele>
        <time>2020-10-09T07:39:47.092Z</time>
      </trkpt>
      <trkpt lat="45.82339" lon="4.63355">
        <ele>382.20001220703</ele>
        <time>2020-10-09T07:39:52.910Z</time>
      </trkpt>
      <trkpt lat="45.82336" lon="4.63353">
        <ele>382.39999389648</ele>
        <time>2020-10-09T07:39:58.729Z</time>
      </trkpt>
      <trkpt lat="45.82316" lon="4.63344">
        <ele>383.20001220703</ele>
        <time>2020-10-09T07:40:04.557Z</time>
      </trkpt>
      <trkpt lat="45.82312" lon="4.63341">
        <ele>383.20001220703</ele>
        <time>2020-10-09T07:40:10.387Z</time>
      </trkpt>
      <trkpt lat="45.82271" lon="4.63309">
        <ele>383.39999389648</ele>
        <time>2020-10-09T07:40:16.237Z</time>
      </trkpt>
      <trkpt lat="45.82223" lon="4.63271">
        <ele>381.79998779297</ele>
        <time>2020-10-09T07:40:22.110Z</time>
        <extensions>
          <visugpx:TrkExtension xmlns:visugpx="https://www.visugpx.com/editgpx/">
            <visugpx:node>13</visugpx:node>
            </visugpx:TrkExtension>
        </extensions>
      </trkpt>
      <trkpt lat="45.82223" lon="4.63271">
        <ele>381.79998779297</ele>
        <time>2020-10-09T07:40:22.110Z</time>
        <extensions>
          <visugpx:TrkExtension xmlns:visugpx="https://www.visugpx.com/editgpx/">
            <visugpx:node>13</visugpx:node>
            </visugpx:TrkExtension>
        </extensions>
      </trkpt>
      <trkpt lat="45.82218" lon="4.63267">
        <ele>381.60000610352</ele>
        <time>2020-10-09T07:40:27.985Z</time>
      </trkpt>
      <trkpt lat="45.82209" lon="4.6326">
        <ele>381.39999389648</ele>
        <time>2020-10-09T07:40:33.865Z</time>
      </trkpt>
      <trkpt lat="45.8219" lon="4.63241">
        <ele>381.39999389648</ele>
        <time>2020-10-09T07:40:39.755Z</time>
      </trkpt>
      <trkpt lat="45.82187" lon="4.63237">
        <ele>381.20001220703</ele>
        <time>2020-10-09T07:40:45.647Z</time>
      </trkpt>
      <trkpt lat="45.82178" lon="4.63227">
        <ele>381.20001220703</ele>
        <time>2020-10-09T07:40:51.543Z</time>
      </trkpt>
      <trkpt lat="45.82174" lon="4.63226">
        <ele>381.20001220703</ele>
        <time>2020-10-09T07:40:57.441Z</time>
      </trkpt>
      <trkpt lat="45.82161" lon="4.63234">
        <ele>381.79998779297</ele>
        <time>2020-10-09T07:41:03.345Z</time>
      </trkpt>
      <trkpt lat="45.82157" lon="4.63238">
        <ele>382.20001220703</ele>
        <time>2020-10-09T07:41:09.251Z</time>
      </trkpt>
      <trkpt lat="45.82153" lon="4.63242">
        <ele>382.79998779297</ele>
        <time>2020-10-09T07:41:15.159Z</time>
      </trkpt>
      <trkpt lat="45.82133" lon="4.6326">
        <ele>383.79998779297</ele>
        <time>2020-10-09T07:41:21.077Z</time>
      </trkpt>
      <trkpt lat="45.82129" lon="4.63263">
        <ele>383.79998779297</ele>
        <time>2020-10-09T07:41:26.997Z</time>
      </trkpt>
      <trkpt lat="45.82091" lon="4.63285">
        <ele>384.60000610352</ele>
        <time>2020-10-09T07:41:32.935Z</time>
      </trkpt>
      <trkpt lat="45.82071" lon="4.63292">
        <ele>384.60000610352</ele>
        <time>2020-10-09T07:41:38.882Z</time>
      </trkpt>
      <trkpt lat="45.82061" lon="4.63297">
        <ele>384.39999389648</ele>
        <time>2020-10-09T07:41:44.833Z</time>
      </trkpt>
      <trkpt lat="45.82056" lon="4.633">
        <ele>384.20001220703</ele>
        <time>2020-10-09T07:41:50.786Z</time>
      </trkpt>
      <trkpt lat="45.82034" lon="4.6332">
        <ele>384</ele>
        <time>2020-10-09T07:41:56.750Z</time>
      </trkpt>
      <trkpt lat="45.8202" lon="4.63351">
        <ele>384</ele>
        <time>2020-10-09T07:42:02.726Z</time>
      </trkpt>
      <trkpt lat="45.82016" lon="4.63366">
        <ele>384</ele>
        <time>2020-10-09T07:42:08.706Z</time>
      </trkpt>
      <trkpt lat="45.82011" lon="4.63396">
        <ele>384</ele>
        <time>2020-10-09T07:42:14.695Z</time>
      </trkpt>
      <trkpt lat="45.82006" lon="4.63438">
        <ele>384.20001220703</ele>
        <time>2020-10-09T07:42:20.697Z</time>
      </trkpt>
      <trkpt lat="45.82006" lon="4.63452">
        <ele>384.20001220703</ele>
        <time>2020-10-09T07:42:26.703Z</time>
      </trkpt>
      <trkpt lat="45.82006" lon="4.63458">
        <ele>384.20001220703</ele>
        <time>2020-10-09T07:42:32.711Z</time>
      </trkpt>
      <trkpt lat="45.82008" lon="4.63484">
        <ele>384.79998779297</ele>
        <time>2020-10-09T07:42:38.727Z</time>
      </trkpt>
      <trkpt lat="45.8201" lon="4.63497">
        <ele>385</ele>
        <time>2020-10-09T07:42:44.747Z</time>
      </trkpt>
      <trkpt lat="45.82017" lon="4.6353">
        <ele>386</ele>
        <time>2020-10-09T07:42:50.777Z</time>
      </trkpt>
      <trkpt lat="45.82021" lon="4.6355">
        <ele>387.20001220703</ele>
        <time>2020-10-09T07:42:56.813Z</time>
      </trkpt>
      <trkpt lat="45.82025" lon="4.63569">
        <ele>388.39999389648</ele>
        <time>2020-10-09T07:43:02.855Z</time>
      </trkpt>
      <trkpt lat="45.8203" lon="4.63589">
        <ele>389.60000610352</ele>
        <time>2020-10-09T07:43:08.904Z</time>
      </trkpt>
      <trkpt lat="45.82033" lon="4.63617">
        <ele>390.39999389648</ele>
        <time>2020-10-09T07:43:14.961Z</time>
      </trkpt>
      <trkpt lat="45.82033" lon="4.63623">
        <ele>390.79998779297</ele>
        <time>2020-10-09T07:43:21.020Z</time>
      </trkpt>
      <trkpt lat="45.82035" lon="4.63644">
        <ele>392.20001220703</ele>
        <time>2020-10-09T07:43:27.085Z</time>
      </trkpt>
      <trkpt lat="45.82038" lon="4.63685">
        <ele>393.60000610352</ele>
        <time>2020-10-09T07:43:33.162Z</time>
      </trkpt>
      <trkpt lat="45.82041" lon="4.63712">
        <ele>395</ele>
        <time>2020-10-09T07:43:39.247Z</time>
      </trkpt>
      <trkpt lat="45.82044" lon="4.63738">
        <ele>396.39999389648</ele>
        <time>2020-10-09T07:43:45.340Z</time>
      </trkpt>
      <trkpt lat="45.82047" lon="4.63751">
        <ele>396.79998779297</ele>
        <time>2020-10-09T07:43:51.437Z</time>
      </trkpt>
      <trkpt lat="45.8205" lon="4.63764">
        <ele>397.60000610352</ele>
        <time>2020-10-09T07:43:57.538Z</time>
      </trkpt>
      <trkpt lat="45.82056" lon="4.63784">
        <ele>398.79998779297</ele>
        <time>2020-10-09T07:44:03.646Z</time>
      </trkpt>
      <trkpt lat="45.82063" lon="4.63811">
        <ele>399.60000610352</ele>
        <time>2020-10-09T07:44:09.762Z</time>
      </trkpt>
      <trkpt lat="45.82064" lon="4.63817">
        <ele>399.79998779297</ele>
        <time>2020-10-09T07:44:15.880Z</time>
      </trkpt>
      <trkpt lat="45.82069" lon="4.63847">
        <ele>401</ele>
        <time>2020-10-09T07:44:22.007Z</time>
      </trkpt>
      <trkpt lat="45.82069" lon="4.63855">
        <ele>401.39999389648</ele>
        <time>2020-10-09T07:44:28.137Z</time>
      </trkpt>
      <trkpt lat="45.82069" lon="4.63879">
        <ele>402.20001220703</ele>
        <time>2020-10-09T07:44:34.274Z</time>
      </trkpt>
      <trkpt lat="45.82068" lon="4.63886">
        <ele>402.39999389648</ele>
        <time>2020-10-09T07:44:40.413Z</time>
      </trkpt>
      <trkpt lat="45.82065" lon="4.63902">
        <ele>402.79998779297</ele>
        <time>2020-10-09T07:44:46.557Z</time>
      </trkpt>
      <trkpt lat="45.82062" lon="4.63926">
        <ele>403.20001220703</ele>
        <time>2020-10-09T07:44:52.708Z</time>
      </trkpt>
      <trkpt lat="45.82053" lon="4.63971">
        <ele>403.79998779297</ele>
        <time>2020-10-09T07:44:58.873Z</time>
      </trkpt>
      <trkpt lat="45.82044" lon="4.63992">
        <ele>404.20001220703</ele>
        <time>2020-10-09T07:45:05.046Z</time>
      </trkpt>
      <trkpt lat="45.82032" lon="4.6402">
        <ele>404.79998779297</ele>
        <time>2020-10-09T07:45:11.228Z</time>
      </trkpt>
      <trkpt lat="45.82025" lon="4.64033">
        <ele>405.20001220703</ele>
        <time>2020-10-09T07:45:17.415Z</time>
      </trkpt>
      <trkpt lat="45.82003" lon="4.64071">
        <ele>405.60000610352</ele>
        <time>2020-10-09T07:45:23.617Z</time>
      </trkpt>
      <trkpt lat="45.81966" lon="4.64121">
        <ele>406.20001220703</ele>
        <time>2020-10-09T07:45:29.841Z</time>
      </trkpt>
      <trkpt lat="45.81962" lon="4.64126">
        <ele>406.20001220703</ele>
        <time>2020-10-09T07:45:36.067Z</time>
      </trkpt>
      <trkpt lat="45.81944" lon="4.64152">
        <ele>406.60000610352</ele>
        <time>2020-10-09T07:45:42.304Z</time>
      </trkpt>
      <trkpt lat="45.81939" lon="4.64166">
        <ele>406.79998779297</ele>
        <time>2020-10-09T07:45:48.545Z</time>
      </trkpt>
      <trkpt lat="45.8194" lon="4.64174">
        <ele>406.60000610352</ele>
        <time>2020-10-09T07:45:54.789Z</time>
      </trkpt>
      <trkpt lat="45.8194" lon="4.64174">
        <ele>406.60000610352</ele>
        <time>2020-10-09T07:46:01.033Z</time>
      </trkpt>
      <trkpt lat="45.8194" lon="4.64177">
        <ele>406.60000610352</ele>
        <time>2020-10-09T07:46:07.278Z</time>
      </trkpt>
      <trkpt lat="45.81939" lon="4.64179">
        <ele>406.60000610352</ele>
        <time>2020-10-09T07:46:13.523Z</time>
      </trkpt>
      <trkpt lat="45.81938" lon="4.64182">
        <ele>406.39999389648</ele>
        <time>2020-10-09T07:46:19.769Z</time>
      </trkpt>
      <trkpt lat="45.81938" lon="4.64185">
        <ele>405.79998779297</ele>
        <time>2020-10-09T07:46:26.016Z</time>
      </trkpt>
      <trkpt lat="45.81937" lon="4.64187">
        <ele>405.20001220703</ele>
        <time>2020-10-09T07:46:32.264Z</time>
      </trkpt>
      <trkpt lat="45.81937" lon="4.64187">
        <ele>404.79998779297</ele>
        <time>2020-10-09T07:46:38.512Z</time>
      </trkpt>
      <trkpt lat="45.81936" lon="4.64194">
        <ele>404.60000610352</ele>
        <time>2020-10-09T07:46:44.762Z</time>
      </trkpt>
      <trkpt lat="45.81934" lon="4.642">
        <ele>404</ele>
        <time>2020-10-09T07:46:51.014Z</time>
      </trkpt>
      <trkpt lat="45.81934" lon="4.64201">
        <ele>404</ele>
        <time>2020-10-09T07:46:57.267Z</time>
      </trkpt>
      <trkpt lat="45.81933" lon="4.64205">
        <ele>403</ele>
        <time>2020-10-09T07:47:03.521Z</time>
      </trkpt>
      <trkpt lat="45.81933" lon="4.64211">
        <ele>402</ele>
        <time>2020-10-09T07:47:09.776Z</time>
      </trkpt>
      <trkpt lat="45.81932" lon="4.64217">
        <ele>401.60000610352</ele>
        <time>2020-10-09T07:47:16.033Z</time>
      </trkpt>
      <trkpt lat="45.81931" lon="4.64222">
        <ele>401.39999389648</ele>
        <time>2020-10-09T07:47:22.292Z</time>
      </trkpt>
      <trkpt lat="45.81932" lon="4.6423">
        <ele>401.20001220703</ele>
        <time>2020-10-09T07:47:28.553Z</time>
      </trkpt>
      <trkpt lat="45.81933" lon="4.64236">
        <ele>400.79998779297</ele>
        <time>2020-10-09T07:47:34.816Z</time>
      </trkpt>
      <trkpt lat="45.81939" lon="4.6425">
        <ele>399.79998779297</ele>
        <time>2020-10-09T07:47:41.084Z</time>
      </trkpt>
      <trkpt lat="45.81941" lon="4.64256">
        <ele>399.60000610352</ele>
        <time>2020-10-09T07:47:47.354Z</time>
      </trkpt>
      <trkpt lat="45.81944" lon="4.64284">
        <ele>399</ele>
        <time>2020-10-09T07:47:53.633Z</time>
      </trkpt>
      <trkpt lat="45.81945" lon="4.64291">
        <ele>398.60000610352</ele>
        <time>2020-10-09T07:47:59.914Z</time>
      </trkpt>
      <trkpt lat="45.81946" lon="4.64303">
        <ele>397</ele>
        <time>2020-10-09T07:48:06.198Z</time>
      </trkpt>
      <trkpt lat="45.81946" lon="4.64317">
        <ele>395.79998779297</ele>
        <time>2020-10-09T07:48:12.486Z</time>
      </trkpt>
      <trkpt lat="45.81947" lon="4.64332">
        <ele>394.20001220703</ele>
        <time>2020-10-09T07:48:18.779Z</time>
      </trkpt>
      <trkpt lat="45.81946" lon="4.6435">
        <ele>392.79998779297</ele>
        <time>2020-10-09T07:48:25.077Z</time>
      </trkpt>
      <trkpt lat="45.81945" lon="4.64358">
        <ele>392.39999389648</ele>
        <time>2020-10-09T07:48:31.378Z</time>
      </trkpt>
      <trkpt lat="45.81943" lon="4.64365">
        <ele>392.20001220703</ele>
        <time>2020-10-09T07:48:37.681Z</time>
      </trkpt>
      <trkpt lat="45.8194" lon="4.64379">
        <ele>391.39999389648</ele>
        <time>2020-10-09T07:48:43.988Z</time>
      </trkpt>
      <trkpt lat="45.8194" lon="4.64386">
        <ele>390</ele>
        <time>2020-10-09T07:48:50.298Z</time>
      </trkpt>
      <trkpt lat="45.81938" lon="4.64401">
        <ele>388.20001220703</ele>
        <time>2020-10-09T07:48:56.612Z</time>
      </trkpt>
      <trkpt lat="45.81936" lon="4.64423">
        <ele>387</ele>
        <time>2020-10-09T07:49:02.932Z</time>
      </trkpt>
      <trkpt lat="45.81933" lon="4.64456">
        <ele>385.60000610352</ele>
        <time>2020-10-09T07:49:09.262Z</time>
      </trkpt>
      <trkpt lat="45.81929" lon="4.64471">
        <ele>384.60000610352</ele>
        <time>2020-10-09T07:49:15.597Z</time>
      </trkpt>
      <trkpt lat="45.81929" lon="4.64472">
        <ele>384</ele>
        <time>2020-10-09T07:49:21.933Z</time>
      </trkpt>
      <trkpt lat="45.81929" lon="4.64472">
        <ele>384</ele>
        <time>2020-10-09T07:49:28.269Z</time>
      </trkpt>
      <trkpt lat="45.81928" lon="4.64483">
        <ele>383.79998779297</ele>
        <time>2020-10-09T07:49:34.608Z</time>
      </trkpt>
      <trkpt lat="45.81923" lon="4.64512">
        <ele>383.79998779297</ele>
        <time>2020-10-09T07:49:40.956Z</time>
      </trkpt>
      <trkpt lat="45.8192" lon="4.6454">
        <ele>383.39999389648</ele>
        <time>2020-10-09T07:49:47.312Z</time>
      </trkpt>
      <trkpt lat="45.81917" lon="4.64562">
        <ele>382</ele>
        <time>2020-10-09T07:49:53.675Z</time>
      </trkpt>
      <trkpt lat="45.81916" lon="4.64569">
        <ele>381</ele>
        <time>2020-10-09T07:50:00.040Z</time>
      </trkpt>
      <trkpt lat="45.81915" lon="4.64576">
        <ele>380</ele>
        <time>2020-10-09T07:50:06.407Z</time>
      </trkpt>
      <trkpt lat="45.81912" lon="4.64597">
        <ele>378.79998779297</ele>
        <time>2020-10-09T07:50:12.781Z</time>
      </trkpt>
      <trkpt lat="45.81908" lon="4.64618">
        <ele>377.60000610352</ele>
        <time>2020-10-09T07:50:19.161Z</time>
      </trkpt>
      <trkpt lat="45.81906" lon="4.64625">
        <ele>377.20001220703</ele>
        <time>2020-10-09T07:50:25.543Z</time>
      </trkpt>
      <trkpt lat="45.81901" lon="4.6464">
        <ele>376.39999389648</ele>
        <time>2020-10-09T07:50:31.930Z</time>
      </trkpt>
      <trkpt lat="45.81889" lon="4.64667">
        <ele>375.20001220703</ele>
        <time>2020-10-09T07:50:38.327Z</time>
      </trkpt>
      <trkpt lat="45.81876" lon="4.64695">
        <ele>373.79998779297</ele>
        <time>2020-10-09T07:50:44.734Z</time>
      </trkpt>
      <trkpt lat="45.81864" lon="4.64723">
        <ele>373</ele>
        <time>2020-10-09T07:50:51.151Z</time>
      </trkpt>
      <trkpt lat="45.81861" lon="4.6473">
        <ele>372.79998779297</ele>
        <time>2020-10-09T07:50:57.570Z</time>
      </trkpt>
      <trkpt lat="45.81848" lon="4.64752">
        <ele>371.39999389648</ele>
        <time>2020-10-09T07:51:03.997Z</time>
      </trkpt>
      <trkpt lat="45.81845" lon="4.64756">
        <ele>370.79998779297</ele>
        <time>2020-10-09T07:51:10.426Z</time>
      </trkpt>
      <trkpt lat="45.81843" lon="4.64762">
        <ele>370.39999389648</ele>
        <time>2020-10-09T07:51:16.857Z</time>
      </trkpt>
      <trkpt lat="45.8184" lon="4.64769">
        <ele>369.39999389648</ele>
        <time>2020-10-09T07:51:23.291Z</time>
      </trkpt>
      <trkpt lat="45.81834" lon="4.64783">
        <ele>368.39999389648</ele>
        <time>2020-10-09T07:51:29.730Z</time>
      </trkpt>
      <trkpt lat="45.81822" lon="4.64811">
        <ele>367.20001220703</ele>
        <time>2020-10-09T07:51:36.178Z</time>
      </trkpt>
      <trkpt lat="45.81815" lon="4.64826">
        <ele>366</ele>
        <time>2020-10-09T07:51:42.632Z</time>
      </trkpt>
      <trkpt lat="45.81805" lon="4.64849">
        <ele>364.20001220703</ele>
        <time>2020-10-09T07:51:49.094Z</time>
      </trkpt>
      <trkpt lat="45.81797" lon="4.64863">
        <ele>363.20001220703</ele>
        <time>2020-10-09T07:51:55.561Z</time>
      </trkpt>
      <trkpt lat="45.81793" lon="4.6487">
        <ele>363</ele>
        <time>2020-10-09T07:52:02.031Z</time>
      </trkpt>
      <trkpt lat="45.81781" lon="4.64893">
        <ele>362.20001220703</ele>
        <time>2020-10-09T07:52:08.509Z</time>
      </trkpt>
      <trkpt lat="45.81774" lon="4.64906">
        <ele>361.79998779297</ele>
        <time>2020-10-09T07:52:14.992Z</time>
      </trkpt>
      <trkpt lat="45.81767" lon="4.64916">
        <ele>360.79998779297</ele>
        <time>2020-10-09T07:52:21.480Z</time>
      </trkpt>
      <trkpt lat="45.81757" lon="4.64933">
        <ele>359.39999389648</ele>
        <time>2020-10-09T07:52:27.974Z</time>
      </trkpt>
      <trkpt lat="45.81751" lon="4.64943">
        <ele>358.79998779297</ele>
        <time>2020-10-09T07:52:34.472Z</time>
      </trkpt>
      <trkpt lat="45.81747" lon="4.64952">
        <ele>358.20001220703</ele>
        <time>2020-10-09T07:52:40.973Z</time>
      </trkpt>
      <trkpt lat="45.81742" lon="4.64965">
        <ele>356.79998779297</ele>
        <time>2020-10-09T07:52:47.479Z</time>
      </trkpt>
      <trkpt lat="45.8174" lon="4.64974">
        <ele>355.79998779297</ele>
        <time>2020-10-09T07:52:53.988Z</time>
      </trkpt>
      <trkpt lat="45.8174" lon="4.64983">
        <ele>354.39999389648</ele>
        <time>2020-10-09T07:53:00.499Z</time>
      </trkpt>
      <trkpt lat="45.81741" lon="4.64997">
        <ele>353.20001220703</ele>
        <time>2020-10-09T07:53:07.014Z</time>
      </trkpt>
      <trkpt lat="45.8174" lon="4.65011">
        <ele>352</ele>
        <time>2020-10-09T07:53:13.534Z</time>
      </trkpt>
      <trkpt lat="45.81739" lon="4.65023">
        <ele>350.79998779297</ele>
        <time>2020-10-09T07:53:20.057Z</time>
      </trkpt>
      <trkpt lat="45.8174" lon="4.6503">
        <ele>350.20001220703</ele>
        <time>2020-10-09T07:53:26.582Z</time>
      </trkpt>
      <trkpt lat="45.8174" lon="4.65038">
        <ele>349.79998779297</ele>
        <time>2020-10-09T07:53:33.110Z</time>
      </trkpt>
      <trkpt lat="45.81741" lon="4.65046">
        <ele>349.39999389648</ele>
        <time>2020-10-09T07:53:39.640Z</time>
      </trkpt>
      <trkpt lat="45.81741" lon="4.65062">
        <ele>348.60000610352</ele>
        <time>2020-10-09T07:53:46.175Z</time>
      </trkpt>
      <trkpt lat="45.81739" lon="4.65071">
        <ele>348</ele>
        <time>2020-10-09T07:53:52.712Z</time>
      </trkpt>
      <trkpt lat="45.81737" lon="4.65079">
        <ele>347.39999389648</ele>
        <time>2020-10-09T07:53:59.252Z</time>
      </trkpt>
      <trkpt lat="45.81735" lon="4.65087">
        <ele>346.79998779297</ele>
        <time>2020-10-09T07:54:05.795Z</time>
      </trkpt>
      <trkpt lat="45.81731" lon="4.65102">
        <ele>345.39999389648</ele>
        <time>2020-10-09T07:54:12.342Z</time>
      </trkpt>
      <trkpt lat="45.81726" lon="4.65114">
        <ele>344.20001220703</ele>
        <time>2020-10-09T07:54:18.894Z</time>
      </trkpt>
      <trkpt lat="45.81723" lon="4.6512">
        <ele>343.39999389648</ele>
        <time>2020-10-09T07:54:25.448Z</time>
      </trkpt>
      <trkpt lat="45.8172" lon="4.65125">
        <ele>341.79998779297</ele>
        <time>2020-10-09T07:54:32.004Z</time>
      </trkpt>
      <trkpt lat="45.81712" lon="4.65135">
        <ele>339.79998779297</ele>
        <time>2020-10-09T07:54:38.564Z</time>
      </trkpt>
      <trkpt lat="45.81708" lon="4.6514">
        <ele>339</ele>
        <time>2020-10-09T07:54:45.127Z</time>
      </trkpt>
      <trkpt lat="45.81703" lon="4.65145">
        <ele>338.20001220703</ele>
        <time>2020-10-09T07:54:51.692Z</time>
      </trkpt>
      <trkpt lat="45.81692" lon="4.65155">
        <ele>336.60000610352</ele>
        <time>2020-10-09T07:54:58.263Z</time>
      </trkpt>
      <trkpt lat="45.81682" lon="4.65166">
        <ele>335</ele>
        <time>2020-10-09T07:55:04.839Z</time>
      </trkpt>
      <trkpt lat="45.81671" lon="4.65178">
        <ele>333.20001220703</ele>
        <time>2020-10-09T07:55:11.421Z</time>
      </trkpt>
      <trkpt lat="45.81661" lon="4.6519">
        <ele>331.60000610352</ele>
        <time>2020-10-09T07:55:18.008Z</time>
      </trkpt>
      <trkpt lat="45.81653" lon="4.652">
        <ele>329.79998779297</ele>
        <time>2020-10-09T07:55:24.600Z</time>
      </trkpt>
      <trkpt lat="45.81645" lon="4.65212">
        <ele>328.60000610352</ele>
        <time>2020-10-09T07:55:31.197Z</time>
      </trkpt>
      <trkpt lat="45.81639" lon="4.65223">
        <ele>327.20001220703</ele>
        <time>2020-10-09T07:55:37.798Z</time>
      </trkpt>
      <trkpt lat="45.81637" lon="4.65228">
        <ele>326.60000610352</ele>
        <time>2020-10-09T07:55:44.401Z</time>
      </trkpt>
      <trkpt lat="45.81635" lon="4.65233">
        <ele>326</ele>
        <time>2020-10-09T07:55:51.006Z</time>
      </trkpt>
      <trkpt lat="45.81632" lon="4.65237">
        <ele>325.39999389648</ele>
        <time>2020-10-09T07:55:57.612Z</time>
      </trkpt>
      <trkpt lat="45.81628" lon="4.65247">
        <ele>324.79998779297</ele>
        <time>2020-10-09T07:56:04.222Z</time>
      </trkpt>
      <trkpt lat="45.81623" lon="4.6526">
        <ele>323.60000610352</ele>
        <time>2020-10-09T07:56:10.836Z</time>
      </trkpt>
      <trkpt lat="45.8161" lon="4.65283">
        <ele>321.79998779297</ele>
        <time>2020-10-09T07:56:17.459Z</time>
      </trkpt>
      <trkpt lat="45.81604" lon="4.65293">
        <ele>321.39999389648</ele>
        <time>2020-10-09T07:56:24.086Z</time>
      </trkpt>
      <trkpt lat="45.81592" lon="4.65313">
        <ele>320.60000610352</ele>
        <time>2020-10-09T07:56:30.721Z</time>
      </trkpt>
      <trkpt lat="45.8158" lon="4.65332">
        <ele>318.79998779297</ele>
        <time>2020-10-09T07:56:37.363Z</time>
      </trkpt>
      <trkpt lat="45.8157" lon="4.65348">
        <ele>317.20001220703</ele>
        <time>2020-10-09T07:56:44.012Z</time>
      </trkpt>
      <trkpt lat="45.81566" lon="4.65355">
        <ele>315.79998779297</ele>
        <time>2020-10-09T07:56:50.664Z</time>
      </trkpt>
      <trkpt lat="45.81562" lon="4.65361">
        <ele>313.60000610352</ele>
        <time>2020-10-09T07:56:57.318Z</time>
      </trkpt>
      <trkpt lat="45.81558" lon="4.65367">
        <ele>311.39999389648</ele>
        <time>2020-10-09T07:57:03.974Z</time>
      </trkpt>
      <trkpt lat="45.81555" lon="4.65373">
        <ele>310.39999389648</ele>
        <time>2020-10-09T07:57:10.632Z</time>
      </trkpt>
      <trkpt lat="45.81551" lon="4.65388">
        <ele>309.20001220703</ele>
        <time>2020-10-09T07:57:17.295Z</time>
      </trkpt>
      <trkpt lat="45.81549" lon="4.65396">
        <ele>309.20001220703</ele>
        <time>2020-10-09T07:57:23.961Z</time>
      </trkpt>
      <trkpt lat="45.81548" lon="4.65405">
        <ele>309.20001220703</ele>
        <time>2020-10-09T07:57:30.630Z</time>
      </trkpt>
      <trkpt lat="45.81546" lon="4.65419">
        <ele>310.20001220703</ele>
        <time>2020-10-09T07:57:37.303Z</time>
      </trkpt>
      <trkpt lat="45.81545" lon="4.65425">
        <ele>310.79998779297</ele>
        <time>2020-10-09T07:57:43.978Z</time>
      </trkpt>
      <trkpt lat="45.81543" lon="4.65428">
        <ele>311.39999389648</ele>
        <time>2020-10-09T07:57:50.654Z</time>
      </trkpt>
      <trkpt lat="45.81543" lon="4.65428">
        <ele>311.60000610352</ele>
        <time>2020-10-09T07:57:57.330Z</time>
      </trkpt>
      <trkpt lat="45.81542" lon="4.6543">
        <ele>312.20001220703</ele>
        <time>2020-10-09T07:58:04.007Z</time>
      </trkpt>
      <trkpt lat="45.81543" lon="4.65433">
        <ele>312.20001220703</ele>
        <time>2020-10-09T07:58:10.684Z</time>
      </trkpt>
      <trkpt lat="45.81542" lon="4.65431">
        <ele>312</ele>
        <time>2020-10-09T07:58:17.362Z</time>
      </trkpt>
      <trkpt lat="45.8154" lon="4.65429">
        <ele>312</ele>
        <time>2020-10-09T07:58:24.041Z</time>
      </trkpt>
      <trkpt lat="45.81527" lon="4.65414">
        <ele>312</ele>
        <time>2020-10-09T07:58:30.727Z</time>
      </trkpt>
      <trkpt lat="45.81513" lon="4.65399">
        <ele>312.79998779297</ele>
        <time>2020-10-09T07:58:37.421Z</time>
      </trkpt>
      <trkpt lat="45.8151" lon="4.65396">
        <ele>313</ele>
        <time>2020-10-09T07:58:44.116Z</time>
      </trkpt>
      <trkpt lat="45.81499" lon="4.65384">
        <ele>314</ele>
        <time>2020-10-09T07:58:50.817Z</time>
      </trkpt>
      <trkpt lat="45.81487" lon="4.65372">
        <ele>314.79998779297</ele>
        <time>2020-10-09T07:58:57.524Z</time>
      </trkpt>
      <trkpt lat="45.81484" lon="4.65369">
        <ele>315.20001220703</ele>
        <time>2020-10-09T07:59:04.233Z</time>
      </trkpt>
      <trkpt lat="45.81472" lon="4.65359">
        <ele>316.39999389648</ele>
        <time>2020-10-09T07:59:10.948Z</time>
      </trkpt>
      <trkpt lat="45.81466" lon="4.65353">
        <ele>316.60000610352</ele>
        <time>2020-10-09T07:59:17.666Z</time>
      </trkpt>
      <trkpt lat="45.81456" lon="4.65346">
        <ele>317.60000610352</ele>
        <time>2020-10-09T07:59:24.389Z</time>
      </trkpt>
      <trkpt lat="45.81436" lon="4.65333">
        <ele>318.39999389648</ele>
        <time>2020-10-09T07:59:31.121Z</time>
      </trkpt>
      <trkpt lat="45.81433" lon="4.65331">
        <ele>318.60000610352</ele>
        <time>2020-10-09T07:59:37.855Z</time>
      </trkpt>
      <trkpt lat="45.81412" lon="4.65317">
        <ele>320</ele>
        <time>2020-10-09T07:59:44.598Z</time>
      </trkpt>
      <trkpt lat="45.81406" lon="4.65312">
        <ele>320.60000610352</ele>
        <time>2020-10-09T07:59:51.345Z</time>
      </trkpt>
      <trkpt lat="45.81396" lon="4.65308">
        <ele>321</ele>
        <time>2020-10-09T07:59:58.096Z</time>
      </trkpt>
      <trkpt lat="45.8139" lon="4.65304">
        <ele>321.39999389648</ele>
        <time>2020-10-09T08:00:04.850Z</time>
      </trkpt>
      <trkpt lat="45.81377" lon="4.65297">
        <ele>322</ele>
        <time>2020-10-09T08:00:11.610Z</time>
      </trkpt>
      <trkpt lat="45.81369" lon="4.65294">
        <ele>322.79998779297</ele>
        <time>2020-10-09T08:00:18.373Z</time>
      </trkpt>
      <trkpt lat="45.81364" lon="4.65292">
        <ele>323.39999389648</ele>
        <time>2020-10-09T08:00:25.138Z</time>
      </trkpt>
      <trkpt lat="45.81355" lon="4.65285">
        <ele>324.20001220703</ele>
        <time>2020-10-09T08:00:31.908Z</time>
      </trkpt>
      <trkpt lat="45.81352" lon="4.65282">
        <ele>324.60000610352</ele>
        <time>2020-10-09T08:00:38.679Z</time>
      </trkpt>
      <trkpt lat="45.81344" lon="4.65276">
        <ele>325.60000610352</ele>
        <time>2020-10-09T08:00:45.454Z</time>
      </trkpt>
      <trkpt lat="45.81341" lon="4.65273">
        <ele>325.79998779297</ele>
        <time>2020-10-09T08:00:52.231Z</time>
      </trkpt>
      <trkpt lat="45.81327" lon="4.65259">
        <ele>326.79998779297</ele>
        <time>2020-10-09T08:00:59.015Z</time>
      </trkpt>
      <trkpt lat="45.81317" lon="4.65244">
        <ele>328.20001220703</ele>
        <time>2020-10-09T08:01:05.805Z</time>
      </trkpt>
      <trkpt lat="45.81306" lon="4.65226">
        <ele>329.39999389648</ele>
        <time>2020-10-09T08:01:12.602Z</time>
      </trkpt>
      <trkpt lat="45.81298" lon="4.65213">
        <ele>330.39999389648</ele>
        <time>2020-10-09T08:01:19.405Z</time>
      </trkpt>
      <trkpt lat="45.8128" lon="4.65187">
        <ele>331.20001220703</ele>
        <time>2020-10-09T08:01:26.218Z</time>
      </trkpt>
      <trkpt lat="45.81257" lon="4.65153">
        <ele>331.39999389648</ele>
        <time>2020-10-09T08:01:33.045Z</time>
      </trkpt>
      <trkpt lat="45.81251" lon="4.65142">
        <ele>331.39999389648</ele>
        <time>2020-10-09T08:01:39.877Z</time>
      </trkpt>
      <trkpt lat="45.8124" lon="4.65125">
        <ele>331.39999389648</ele>
        <time>2020-10-09T08:01:46.716Z</time>
      </trkpt>
      <trkpt lat="45.81207" lon="4.6508">
        <ele>330.79998779297</ele>
        <time>2020-10-09T08:01:53.574Z</time>
      </trkpt>
      <trkpt lat="45.81194" lon="4.65063">
        <ele>330.39999389648</ele>
        <time>2020-10-09T08:02:00.439Z</time>
      </trkpt>
      <trkpt lat="45.81187" lon="4.65053">
        <ele>330.39999389648</ele>
        <time>2020-10-09T08:02:07.309Z</time>
      </trkpt>
      <trkpt lat="45.81184" lon="4.65047">
        <ele>330.39999389648</ele>
        <time>2020-10-09T08:02:14.181Z</time>
      </trkpt>
      <trkpt lat="45.81177" lon="4.65031">
        <ele>330.39999389648</ele>
        <time>2020-10-09T08:02:21.059Z</time>
      </trkpt>
      <trkpt lat="45.81166" lon="4.65004">
        <ele>330.39999389648</ele>
        <time>2020-10-09T08:02:27.946Z</time>
      </trkpt>
      <trkpt lat="45.81164" lon="4.64996">
        <ele>330.39999389648</ele>
        <time>2020-10-09T08:02:34.835Z</time>
      </trkpt>
      <trkpt lat="45.81162" lon="4.6497">
        <ele>330.39999389648</ele>
        <time>2020-10-09T08:02:41.732Z</time>
      </trkpt>
      <trkpt lat="45.81154" lon="4.6495">
        <ele>330.39999389648</ele>
        <time>2020-10-09T08:02:48.636Z</time>
      </trkpt>
      <trkpt lat="45.81149" lon="4.64939">
        <ele>330.79998779297</ele>
        <time>2020-10-09T08:02:55.544Z</time>
      </trkpt>
      <trkpt lat="45.81148" lon="4.64937">
        <ele>331.39999389648</ele>
        <time>2020-10-09T08:03:02.453Z</time>
      </trkpt>
      <trkpt lat="45.81147" lon="4.64936">
        <ele>331.79998779297</ele>
        <time>2020-10-09T08:03:09.362Z</time>
      </trkpt>
      <trkpt lat="45.81146" lon="4.64932">
        <ele>332.60000610352</ele>
        <time>2020-10-09T08:03:16.272Z</time>
      </trkpt>
      <trkpt lat="45.81145" lon="4.64928">
        <ele>333.39999389648</ele>
        <time>2020-10-09T08:03:23.184Z</time>
      </trkpt>
      <trkpt lat="45.81144" lon="4.64925">
        <ele>333.60000610352</ele>
        <time>2020-10-09T08:03:30.097Z</time>
      </trkpt>
      <trkpt lat="45.81143" lon="4.64914">
        <ele>335</ele>
        <time>2020-10-09T08:03:37.013Z</time>
      </trkpt>
      <trkpt lat="45.81141" lon="4.64907">
        <ele>336</ele>
        <time>2020-10-09T08:03:43.931Z</time>
      </trkpt>
      <trkpt lat="45.8114" lon="4.64903">
        <ele>336.39999389648</ele>
        <time>2020-10-09T08:03:50.850Z</time>
      </trkpt>
      <trkpt lat="45.81136" lon="4.64888">
        <ele>337.39999389648</ele>
        <time>2020-10-09T08:03:57.774Z</time>
      </trkpt>
      <trkpt lat="45.81134" lon="4.6488">
        <ele>338.20001220703</ele>
        <time>2020-10-09T08:04:04.701Z</time>
      </trkpt>
      <trkpt lat="45.81133" lon="4.64876">
        <ele>338.60000610352</ele>
        <time>2020-10-09T08:04:11.629Z</time>
      </trkpt>
      <trkpt lat="45.81127" lon="4.6485">
        <ele>339.39999389648</ele>
        <time>2020-10-09T08:04:18.565Z</time>
      </trkpt>
      <trkpt lat="45.81126" lon="4.64846">
        <ele>339.79998779297</ele>
        <time>2020-10-09T08:04:25.502Z</time>
      </trkpt>
      <trkpt lat="45.81121" lon="4.64827">
        <ele>340.60000610352</ele>
        <time>2020-10-09T08:04:32.445Z</time>
      </trkpt>
      <trkpt lat="45.8112" lon="4.64824">
        <ele>340.79998779297</ele>
        <time>2020-10-09T08:04:39.390Z</time>
      </trkpt>
      <trkpt lat="45.81116" lon="4.6481">
        <ele>341.39999389648</ele>
        <time>2020-10-09T08:04:46.339Z</time>
      </trkpt>
      <trkpt lat="45.81113" lon="4.64804">
        <ele>341.79998779297</ele>
        <time>2020-10-09T08:04:53.290Z</time>
      </trkpt>
      <trkpt lat="45.81109" lon="4.64794">
        <ele>342.39999389648</ele>
        <time>2020-10-09T08:05:00.245Z</time>
      </trkpt>
      <trkpt lat="45.81106" lon="4.64789">
        <ele>343</ele>
        <time>2020-10-09T08:05:07.202Z</time>
      </trkpt>
      <trkpt lat="45.811" lon="4.64779">
        <ele>343.79998779297</ele>
        <time>2020-10-09T08:05:14.162Z</time>
      </trkpt>
      <trkpt lat="45.81099" lon="4.64777">
        <ele>344</ele>
        <time>2020-10-09T08:05:21.123Z</time>
      </trkpt>
      <trkpt lat="45.8109" lon="4.64763">
        <ele>345.20001220703</ele>
        <time>2020-10-09T08:05:28.090Z</time>
      </trkpt>
      <trkpt lat="45.81088" lon="4.6476">
        <ele>345.60000610352</ele>
        <time>2020-10-09T08:05:35.058Z</time>
      </trkpt>
      <trkpt lat="45.81081" lon="4.64749">
        <ele>346.20001220703</ele>
        <time>2020-10-09T08:05:42.031Z</time>
      </trkpt>
      <trkpt lat="45.81077" lon="4.64742">
        <ele>346.39999389648</ele>
        <time>2020-10-09T08:05:49.006Z</time>
      </trkpt>
      <trkpt lat="45.81068" lon="4.6473">
        <ele>347.20001220703</ele>
        <time>2020-10-09T08:05:55.986Z</time>
      </trkpt>
      <trkpt lat="45.81067" lon="4.64727">
        <ele>347.39999389648</ele>
        <time>2020-10-09T08:06:02.967Z</time>
      </trkpt>
      <trkpt lat="45.81056" lon="4.64709">
        <ele>348.60000610352</ele>
        <time>2020-10-09T08:06:09.956Z</time>
      </trkpt>
      <trkpt lat="45.81048" lon="4.64697">
        <ele>349.60000610352</ele>
        <time>2020-10-09T08:06:16.950Z</time>
      </trkpt>
      <trkpt lat="45.81039" lon="4.64685">
        <ele>350.60000610352</ele>
        <time>2020-10-09T08:06:23.949Z</time>
      </trkpt>
      <trkpt lat="45.81037" lon="4.64682">
        <ele>351</ele>
        <time>2020-10-09T08:06:30.949Z</time>
      </trkpt>
      <trkpt lat="45.81023" lon="4.64661">
        <ele>352</ele>
        <time>2020-10-09T08:06:37.958Z</time>
      </trkpt>
      <trkpt lat="45.8101" lon="4.64643">
        <ele>353.20001220703</ele>
        <time>2020-10-09T08:06:44.974Z</time>
      </trkpt>
      <trkpt lat="45.81006" lon="4.64637">
        <ele>353.60000610352</ele>
        <time>2020-10-09T08:06:51.993Z</time>
      </trkpt>
      <trkpt lat="45.81" lon="4.64628">
        <ele>354.20001220703</ele>
        <time>2020-10-09T08:06:59.016Z</time>
      </trkpt>
      <trkpt lat="45.80992" lon="4.64616">
        <ele>355</ele>
        <time>2020-10-09T08:07:06.043Z</time>
      </trkpt>
      <trkpt lat="45.80989" lon="4.6461">
        <ele>355.60000610352</ele>
        <time>2020-10-09T08:07:13.073Z</time>
      </trkpt>
      <trkpt lat="45.80981" lon="4.64599">
        <ele>356.79998779297</ele>
        <time>2020-10-09T08:07:20.107Z</time>
      </trkpt>
      <trkpt lat="45.80977" lon="4.64594">
        <ele>358</ele>
        <time>2020-10-09T08:07:27.144Z</time>
      </trkpt>
      <trkpt lat="45.80971" lon="4.64587">
        <ele>359</ele>
        <time>2020-10-09T08:07:34.184Z</time>
      </trkpt>
      <trkpt lat="45.80962" lon="4.64578">
        <ele>360</ele>
        <time>2020-10-09T08:07:41.229Z</time>
      </trkpt>
      <trkpt lat="45.8096" lon="4.64576">
        <ele>360.20001220703</ele>
        <time>2020-10-09T08:07:48.275Z</time>
      </trkpt>
      <trkpt lat="45.80948" lon="4.64566">
        <ele>361.39999389648</ele>
        <time>2020-10-09T08:07:55.326Z</time>
      </trkpt>
      <trkpt lat="45.80943" lon="4.64559">
        <ele>362</ele>
        <time>2020-10-09T08:08:02.381Z</time>
      </trkpt>
      <trkpt lat="45.80935" lon="4.64548">
        <ele>362.60000610352</ele>
        <time>2020-10-09T08:08:09.440Z</time>
      </trkpt>
      <trkpt lat="45.80932" lon="4.64541">
        <ele>363</ele>
        <time>2020-10-09T08:08:16.502Z</time>
      </trkpt>
      <trkpt lat="45.80927" lon="4.6453">
        <ele>363.79998779297</ele>
        <time>2020-10-09T08:08:23.567Z</time>
      </trkpt>
      <trkpt lat="45.80922" lon="4.64521">
        <ele>364.20001220703</ele>
        <time>2020-10-09T08:08:30.636Z</time>
      </trkpt>
      <trkpt lat="45.80917" lon="4.64513">
        <ele>364.79998779297</ele>
        <time>2020-10-09T08:08:37.708Z</time>
      </trkpt>
      <trkpt lat="45.80915" lon="4.64507">
        <ele>365.20001220703</ele>
        <time>2020-10-09T08:08:44.782Z</time>
      </trkpt>
      <trkpt lat="45.8091" lon="4.64498">
        <ele>366</ele>
        <time>2020-10-09T08:08:51.859Z</time>
      </trkpt>
      <trkpt lat="45.8091" lon="4.64498">
        <ele>366.20001220703</ele>
        <time>2020-10-09T08:08:58.937Z</time>
      </trkpt>
      <trkpt lat="45.8091" lon="4.64498">
        <ele>367.20001220703</ele>
        <time>2020-10-09T08:09:06.015Z</time>
      </trkpt>
      <trkpt lat="45.8091" lon="4.64498">
        <ele>367.39999389648</ele>
        <time>2020-10-09T08:09:13.093Z</time>
      </trkpt>
      <trkpt lat="45.8091" lon="4.64498">
        <ele>367.39999389648</ele>
        <time>2020-10-09T08:09:20.171Z</time>
      </trkpt>
      <trkpt lat="45.80904" lon="4.64492">
        <ele>367.60000610352</ele>
        <time>2020-10-09T08:09:27.252Z</time>
      </trkpt>
      <trkpt lat="45.80898" lon="4.6448">
        <ele>367.60000610352</ele>
        <time>2020-10-09T08:09:34.337Z</time>
      </trkpt>
      <trkpt lat="45.80895" lon="4.64473">
        <ele>367.60000610352</ele>
        <time>2020-10-09T08:09:41.425Z</time>
      </trkpt>
      <trkpt lat="45.80888" lon="4.64458">
        <ele>368</ele>
        <time>2020-10-09T08:09:48.518Z</time>
      </trkpt>
      <trkpt lat="45.80883" lon="4.64452">
        <ele>368.39999389648</ele>
        <time>2020-10-09T08:09:55.614Z</time>
      </trkpt>
      <trkpt lat="45.80871" lon="4.64439">
        <ele>369.39999389648</ele>
        <time>2020-10-09T08:10:02.716Z</time>
      </trkpt>
      <trkpt lat="45.80864" lon="4.64432">
        <ele>370.39999389648</ele>
        <time>2020-10-09T08:10:09.822Z</time>
      </trkpt>
      <trkpt lat="45.80859" lon="4.64423">
        <ele>371.39999389648</ele>
        <time>2020-10-09T08:10:16.931Z</time>
      </trkpt>
      <trkpt lat="45.80858" lon="4.6442">
        <ele>372</ele>
        <time>2020-10-09T08:10:24.041Z</time>
      </trkpt>
      <trkpt lat="45.80854" lon="4.64415">
        <ele>372.79998779297</ele>
        <time>2020-10-09T08:10:31.154Z</time>
      </trkpt>
      <trkpt lat="45.80846" lon="4.64405">
        <ele>373.79998779297</ele>
        <time>2020-10-09T08:10:38.271Z</time>
      </trkpt>
      <trkpt lat="45.80844" lon="4.64402">
        <ele>374</ele>
        <time>2020-10-09T08:10:45.389Z</time>
      </trkpt>
      <trkpt lat="45.80839" lon="4.64395">
        <ele>375</ele>
        <time>2020-10-09T08:10:52.510Z</time>
      </trkpt>
      <trkpt lat="45.80832" lon="4.64387">
        <ele>375.60000610352</ele>
        <time>2020-10-09T08:10:59.635Z</time>
      </trkpt>
      <trkpt lat="45.80828" lon="4.64382">
        <ele>376</ele>
        <time>2020-10-09T08:11:06.762Z</time>
      </trkpt>
      <trkpt lat="45.8082" lon="4.64373">
        <ele>377</ele>
        <time>2020-10-09T08:11:13.894Z</time>
      </trkpt>
      <trkpt lat="45.80812" lon="4.64363">
        <ele>378.39999389648</ele>
        <time>2020-10-09T08:11:21.030Z</time>
      </trkpt>
      <trkpt lat="45.80807" lon="4.64359">
        <ele>379</ele>
        <time>2020-10-09T08:11:28.169Z</time>
      </trkpt>
      <trkpt lat="45.80805" lon="4.64357">
        <ele>379.39999389648</ele>
        <time>2020-10-09T08:11:35.309Z</time>
      </trkpt>
      <trkpt lat="45.80802" lon="4.64355">
        <ele>379.79998779297</ele>
        <time>2020-10-09T08:11:42.450Z</time>
      </trkpt>
      <trkpt lat="45.80798" lon="4.6435">
        <ele>380.79998779297</ele>
        <time>2020-10-09T08:11:49.593Z</time>
      </trkpt>
      <trkpt lat="45.80795" lon="4.64347">
        <ele>381.39999389648</ele>
        <time>2020-10-09T08:11:56.738Z</time>
      </trkpt>
      <trkpt lat="45.80792" lon="4.64345">
        <ele>381.79998779297</ele>
        <time>2020-10-09T08:12:03.884Z</time>
      </trkpt>
      <trkpt lat="45.80786" lon="4.64336">
        <ele>383</ele>
        <time>2020-10-09T08:12:11.034Z</time>
      </trkpt>
      <trkpt lat="45.80782" lon="4.64329">
        <ele>383.60000610352</ele>
        <time>2020-10-09T08:12:18.186Z</time>
      </trkpt>
      <trkpt lat="45.8078" lon="4.64325">
        <ele>384</ele>
        <time>2020-10-09T08:12:25.340Z</time>
      </trkpt>
      <trkpt lat="45.80772" lon="4.64313">
        <ele>385.20001220703</ele>
        <time>2020-10-09T08:12:32.499Z</time>
      </trkpt>
      <trkpt lat="45.80767" lon="4.64305">
        <ele>386</ele>
        <time>2020-10-09T08:12:39.661Z</time>
      </trkpt>
      <trkpt lat="45.80765" lon="4.64302">
        <ele>386.20001220703</ele>
        <time>2020-10-09T08:12:46.824Z</time>
      </trkpt>
      <trkpt lat="45.80759" lon="4.6429">
        <ele>387.39999389648</ele>
        <time>2020-10-09T08:12:53.992Z</time>
      </trkpt>
      <trkpt lat="45.80755" lon="4.64282">
        <ele>389.20001220703</ele>
        <time>2020-10-09T08:13:01.163Z</time>
      </trkpt>
      <trkpt lat="45.8075" lon="4.64272">
        <ele>390.39999389648</ele>
        <time>2020-10-09T08:13:08.337Z</time>
      </trkpt>
      <trkpt lat="45.80747" lon="4.64267">
        <ele>391</ele>
        <time>2020-10-09T08:13:15.513Z</time>
      </trkpt>
      <trkpt lat="45.80744" lon="4.64262">
        <ele>391.79998779297</ele>
        <time>2020-10-09T08:13:22.691Z</time>
      </trkpt>
      <trkpt lat="45.8074" lon="4.64255">
        <ele>392.79998779297</ele>
        <time>2020-10-09T08:13:29.872Z</time>
      </trkpt>
      <trkpt lat="45.80739" lon="4.64253">
        <ele>393.39999389648</ele>
        <time>2020-10-09T08:13:37.054Z</time>
      </trkpt>
      <trkpt lat="45.80736" lon="4.64248">
        <ele>394.39999389648</ele>
        <time>2020-10-09T08:13:44.238Z</time>
      </trkpt>
      <trkpt lat="45.80732" lon="4.64238">
        <ele>395.60000610352</ele>
        <time>2020-10-09T08:13:51.425Z</time>
      </trkpt>
      <trkpt lat="45.80728" lon="4.6423">
        <ele>396.79998779297</ele>
        <time>2020-10-09T08:13:58.615Z</time>
      </trkpt>
      <trkpt lat="45.80727" lon="4.64226">
        <ele>398</ele>
        <time>2020-10-09T08:14:05.806Z</time>
      </trkpt>
      <trkpt lat="45.80727" lon="4.64225">
        <ele>398.60000610352</ele>
        <time>2020-10-09T08:14:12.998Z</time>
      </trkpt>
      <trkpt lat="45.80726" lon="4.64224">
        <ele>399</ele>
        <time>2020-10-09T08:14:20.190Z</time>
      </trkpt>
      <trkpt lat="45.80726" lon="4.64224">
        <ele>400</ele>
        <time>2020-10-09T08:14:27.382Z</time>
      </trkpt>
      <trkpt lat="45.80726" lon="4.64223">
        <ele>400</ele>
        <time>2020-10-09T08:14:34.574Z</time>
      </trkpt>
      <trkpt lat="45.80726" lon="4.64222">
        <ele>400</ele>
        <time>2020-10-09T08:14:41.767Z</time>
      </trkpt>
      <trkpt lat="45.80726" lon="4.64218">
        <ele>400</ele>
        <time>2020-10-09T08:14:48.961Z</time>
      </trkpt>
      <trkpt lat="45.80728" lon="4.64213">
        <ele>400</ele>
        <time>2020-10-09T08:14:56.157Z</time>
      </trkpt>
      <trkpt lat="45.80733" lon="4.64198">
        <ele>400</ele>
        <time>2020-10-09T08:15:03.357Z</time>
      </trkpt>
      <trkpt lat="45.80734" lon="4.64195">
        <ele>400</ele>
        <time>2020-10-09T08:15:10.559Z</time>
      </trkpt>
      <trkpt lat="45.80742" lon="4.64166">
        <ele>400.60000610352</ele>
        <time>2020-10-09T08:15:17.770Z</time>
      </trkpt>
      <trkpt lat="45.80747" lon="4.64149">
        <ele>401</ele>
        <time>2020-10-09T08:15:24.986Z</time>
      </trkpt>
      <trkpt lat="45.80752" lon="4.64132">
        <ele>401.79998779297</ele>
        <time>2020-10-09T08:15:32.208Z</time>
      </trkpt>
      <trkpt lat="45.80756" lon="4.6412">
        <ele>402.20001220703</ele>
        <time>2020-10-09T08:15:39.434Z</time>
      </trkpt>
      <trkpt lat="45.8076" lon="4.64099">
        <ele>403.39999389648</ele>
        <time>2020-10-09T08:15:46.666Z</time>
      </trkpt>
      <trkpt lat="45.8076" lon="4.64095">
        <ele>403.79998779297</ele>
        <time>2020-10-09T08:15:53.900Z</time>
      </trkpt>
      <trkpt lat="45.80762" lon="4.64086">
        <ele>404.39999389648</ele>
        <time>2020-10-09T08:16:01.136Z</time>
      </trkpt>
      <trkpt lat="45.80765" lon="4.64066">
        <ele>405.60000610352</ele>
        <time>2020-10-09T08:16:08.378Z</time>
      </trkpt>
      <trkpt lat="45.80767" lon="4.64055">
        <ele>406.79998779297</ele>
        <time>2020-10-09T08:16:15.624Z</time>
      </trkpt>
      <trkpt lat="45.8077" lon="4.64039">
        <ele>408.20001220703</ele>
        <time>2020-10-09T08:16:22.875Z</time>
      </trkpt>
      <trkpt lat="45.80773" lon="4.64027">
        <ele>409.20001220703</ele>
        <time>2020-10-09T08:16:30.129Z</time>
      </trkpt>
      <trkpt lat="45.80774" lon="4.6402">
        <ele>409.79998779297</ele>
        <time>2020-10-09T08:16:37.386Z</time>
      </trkpt>
      <trkpt lat="45.80776" lon="4.64012">
        <ele>410.39999389648</ele>
        <time>2020-10-09T08:16:44.645Z</time>
      </trkpt>
      <trkpt lat="45.80778" lon="4.63992">
        <ele>411.60000610352</ele>
        <time>2020-10-09T08:16:51.910Z</time>
      </trkpt>
      <trkpt lat="45.80779" lon="4.63984">
        <ele>412</ele>
        <time>2020-10-09T08:16:59.177Z</time>
      </trkpt>
      <trkpt lat="45.80779" lon="4.6398">
        <ele>412.60000610352</ele>
        <time>2020-10-09T08:17:06.446Z</time>
      </trkpt>
      <trkpt lat="45.80778" lon="4.6396">
        <ele>414</ele>
        <time>2020-10-09T08:17:13.721Z</time>
      </trkpt>
      <trkpt lat="45.80777" lon="4.63948">
        <ele>415</ele>
        <time>2020-10-09T08:17:20.999Z</time>
      </trkpt>
      <trkpt lat="45.80777" lon="4.63944">
        <ele>415.20001220703</ele>
        <time>2020-10-09T08:17:28.278Z</time>
      </trkpt>
      <trkpt lat="45.80778" lon="4.63928">
        <ele>416.60000610352</ele>
        <time>2020-10-09T08:17:35.562Z</time>
      </trkpt>
      <trkpt lat="45.80778" lon="4.63919">
        <ele>417.20001220703</ele>
        <time>2020-10-09T08:17:42.849Z</time>
      </trkpt>
      <trkpt lat="45.80779" lon="4.63911">
        <ele>417.79998779297</ele>
        <time>2020-10-09T08:17:50.138Z</time>
      </trkpt>
      <trkpt lat="45.80781" lon="4.63885">
        <ele>419</ele>
        <time>2020-10-09T08:17:57.435Z</time>
      </trkpt>
      <trkpt lat="45.80782" lon="4.63868">
        <ele>420.20001220703</ele>
        <time>2020-10-09T08:18:04.737Z</time>
      </trkpt>
      <trkpt lat="45.80782" lon="4.63864">
        <ele>420.39999389648</ele>
        <time>2020-10-09T08:18:12.040Z</time>
      </trkpt>
      <trkpt lat="45.80783" lon="4.63851">
        <ele>421.39999389648</ele>
        <time>2020-10-09T08:18:19.347Z</time>
      </trkpt>
      <trkpt lat="45.80782" lon="4.63829">
        <ele>422.60000610352</ele>
        <time>2020-10-09T08:18:26.661Z</time>
      </trkpt>
      <trkpt lat="45.80782" lon="4.63808">
        <ele>423.79998779297</ele>
        <time>2020-10-09T08:18:33.981Z</time>
      </trkpt>
      <trkpt lat="45.80782" lon="4.63794">
        <ele>424.39999389648</ele>
        <time>2020-10-09T08:18:41.305Z</time>
      </trkpt>
      <trkpt lat="45.80782" lon="4.63784">
        <ele>424.79998779297</ele>
        <time>2020-10-09T08:18:48.632Z</time>
      </trkpt>
      <trkpt lat="45.8078" lon="4.63753">
        <ele>425.79998779297</ele>
        <time>2020-10-09T08:18:55.969Z</time>
      </trkpt>
      <trkpt lat="45.8078" lon="4.63748">
        <ele>425.79998779297</ele>
        <time>2020-10-09T08:19:03.307Z</time>
      </trkpt>
      <trkpt lat="45.80784" lon="4.63716">
        <ele>426.79998779297</ele>
        <time>2020-10-09T08:19:10.655Z</time>
      </trkpt>
      <trkpt lat="45.80792" lon="4.63689">
        <ele>427.79998779297</ele>
        <time>2020-10-09T08:19:18.011Z</time>
      </trkpt>
      <trkpt lat="45.80795" lon="4.63668">
        <ele>429</ele>
        <time>2020-10-09T08:19:25.374Z</time>
      </trkpt>
      <trkpt lat="45.80796" lon="4.63661">
        <ele>429.60000610352</ele>
        <time>2020-10-09T08:19:32.739Z</time>
      </trkpt>
      <trkpt lat="45.80797" lon="4.6365">
        <ele>430.20001220703</ele>
        <time>2020-10-09T08:19:40.107Z</time>
      </trkpt>
      <trkpt lat="45.80799" lon="4.6364">
        <ele>431.39999389648</ele>
        <time>2020-10-09T08:19:47.478Z</time>
      </trkpt>
      <trkpt lat="45.808" lon="4.6363">
        <ele>432.39999389648</ele>
        <time>2020-10-09T08:19:54.852Z</time>
      </trkpt>
      <trkpt lat="45.808" lon="4.63621">
        <ele>433.60000610352</ele>
        <time>2020-10-09T08:20:02.229Z</time>
      </trkpt>
      <trkpt lat="45.80801" lon="4.63607">
        <ele>435</ele>
        <time>2020-10-09T08:20:09.610Z</time>
      </trkpt>
      <trkpt lat="45.80802" lon="4.63597">
        <ele>436.20001220703</ele>
        <time>2020-10-09T08:20:16.994Z</time>
      </trkpt>
      <trkpt lat="45.80802" lon="4.63591">
        <ele>436.79998779297</ele>
        <time>2020-10-09T08:20:24.380Z</time>
      </trkpt>
      <trkpt lat="45.80802" lon="4.63584">
        <ele>437.60000610352</ele>
        <time>2020-10-09T08:20:31.768Z</time>
      </trkpt>
      <trkpt lat="45.80802" lon="4.63574">
        <ele>438.79998779297</ele>
        <time>2020-10-09T08:20:39.159Z</time>
      </trkpt>
      <trkpt lat="45.80801" lon="4.63568">
        <ele>439.60000610352</ele>
        <time>2020-10-09T08:20:46.552Z</time>
      </trkpt>
      <trkpt lat="45.80801" lon="4.63564">
        <ele>440</ele>
        <time>2020-10-09T08:20:53.946Z</time>
      </trkpt>
      <trkpt lat="45.808" lon="4.63554">
        <ele>441</ele>
        <time>2020-10-09T08:21:01.343Z</time>
      </trkpt>
      <trkpt lat="45.80799" lon="4.63542">
        <ele>442.39999389648</ele>
        <time>2020-10-09T08:21:08.744Z</time>
      </trkpt>
      <trkpt lat="45.80799" lon="4.63538">
        <ele>443</ele>
        <time>2020-10-09T08:21:16.146Z</time>
      </trkpt>
      <trkpt lat="45.80798" lon="4.63535">
        <ele>443.60000610352</ele>
        <time>2020-10-09T08:21:23.549Z</time>
      </trkpt>
      <trkpt lat="45.80798" lon="4.6353">
        <ele>445</ele>
        <time>2020-10-09T08:21:30.953Z</time>
      </trkpt>
      <trkpt lat="45.80797" lon="4.6352">
        <ele>446</ele>
        <time>2020-10-09T08:21:38.360Z</time>
      </trkpt>
      <trkpt lat="45.80797" lon="4.63517">
        <ele>446.20001220703</ele>
        <time>2020-10-09T08:21:45.768Z</time>
      </trkpt>
      <trkpt lat="45.80796" lon="4.63507">
        <ele>447</ele>
        <time>2020-10-09T08:21:53.179Z</time>
      </trkpt>
      <trkpt lat="45.80792" lon="4.63492">
        <ele>448.20001220703</ele>
        <time>2020-10-09T08:22:00.595Z</time>
      </trkpt>
      <trkpt lat="45.80788" lon="4.63479">
        <ele>449.39999389648</ele>
        <time>2020-10-09T08:22:08.015Z</time>
      </trkpt>
      <trkpt lat="45.80786" lon="4.63469">
        <ele>450</ele>
        <time>2020-10-09T08:22:15.438Z</time>
      </trkpt>
      <trkpt lat="45.80785" lon="4.63462">
        <ele>450.39999389648</ele>
        <time>2020-10-09T08:22:22.864Z</time>
      </trkpt>
      <trkpt lat="45.80781" lon="4.63445">
        <ele>451.20001220703</ele>
        <time>2020-10-09T08:22:30.295Z</time>
      </trkpt>
      <trkpt lat="45.8078" lon="4.63442">
        <ele>451.39999389648</ele>
        <time>2020-10-09T08:22:37.727Z</time>
      </trkpt>
      <trkpt lat="45.80778" lon="4.63431">
        <ele>452.39999389648</ele>
        <time>2020-10-09T08:22:45.162Z</time>
      </trkpt>
      <trkpt lat="45.80777" lon="4.63422">
        <ele>453.20001220703</ele>
        <time>2020-10-09T08:22:52.600Z</time>
      </trkpt>
      <trkpt lat="45.80777" lon="4.63419">
        <ele>453.60000610352</ele>
        <time>2020-10-09T08:23:00.039Z</time>
      </trkpt>
      <trkpt lat="45.80778" lon="4.63406">
        <ele>454.60000610352</ele>
        <time>2020-10-09T08:23:07.481Z</time>
      </trkpt>
      <trkpt lat="45.80778" lon="4.63404">
        <ele>455</ele>
        <time>2020-10-09T08:23:14.924Z</time>
      </trkpt>
      <trkpt lat="45.8078" lon="4.63395">
        <ele>455.79998779297</ele>
        <time>2020-10-09T08:23:22.370Z</time>
      </trkpt>
      <trkpt lat="45.80781" lon="4.63389">
        <ele>456.39999389648</ele>
        <time>2020-10-09T08:23:29.818Z</time>
      </trkpt>
      <trkpt lat="45.80782" lon="4.63386">
        <ele>456.79998779297</ele>
        <time>2020-10-09T08:23:37.267Z</time>
      </trkpt>
      <trkpt lat="45.80783" lon="4.63375">
        <ele>458</ele>
        <time>2020-10-09T08:23:44.719Z</time>
      </trkpt>
      <trkpt lat="45.80784" lon="4.63369">
        <ele>458.79998779297</ele>
        <time>2020-10-09T08:23:52.173Z</time>
      </trkpt>
      <trkpt lat="45.80784" lon="4.63365">
        <ele>459.20001220703</ele>
        <time>2020-10-09T08:23:59.628Z</time>
      </trkpt>
      <trkpt lat="45.80785" lon="4.63355">
        <ele>460.39999389648</ele>
        <time>2020-10-09T08:24:07.086Z</time>
      </trkpt>
      <trkpt lat="45.80785" lon="4.63351">
        <ele>460.60000610352</ele>
        <time>2020-10-09T08:24:14.545Z</time>
      </trkpt>
      <trkpt lat="45.80785" lon="4.63344">
        <ele>461.60000610352</ele>
        <time>2020-10-09T08:24:22.006Z</time>
      </trkpt>
      <trkpt lat="45.80789" lon="4.63323">
        <ele>462.39999389648</ele>
        <time>2020-10-09T08:24:29.474Z</time>
      </trkpt>
      <trkpt lat="45.8079" lon="4.63319">
        <ele>462.79998779297</ele>
        <time>2020-10-09T08:24:36.943Z</time>
      </trkpt>
      <trkpt lat="45.80797" lon="4.63294">
        <ele>463.60000610352</ele>
        <time>2020-10-09T08:24:44.420Z</time>
      </trkpt>
      <trkpt lat="45.80798" lon="4.63289">
        <ele>463.79998779297</ele>
        <time>2020-10-09T08:24:51.899Z</time>
      </trkpt>
      <trkpt lat="45.80802" lon="4.63271">
        <ele>464.79998779297</ele>
        <time>2020-10-09T08:24:59.383Z</time>
      </trkpt>
      <trkpt lat="45.80803" lon="4.63258">
        <ele>465.20001220703</ele>
        <time>2020-10-09T08:25:06.871Z</time>
      </trkpt>
      <trkpt lat="45.80804" lon="4.63236">
        <ele>465.79998779297</ele>
        <time>2020-10-09T08:25:14.366Z</time>
      </trkpt>
      <trkpt lat="45.80803" lon="4.63232">
        <ele>465.79998779297</ele>
        <time>2020-10-09T08:25:21.862Z</time>
      </trkpt>
      <trkpt lat="45.80799" lon="4.63206">
        <ele>467</ele>
        <time>2020-10-09T08:25:29.366Z</time>
      </trkpt>
      <trkpt lat="45.80793" lon="4.63174">
        <ele>468.20001220703</ele>
        <time>2020-10-09T08:25:36.880Z</time>
      </trkpt>
      <trkpt lat="45.80786" lon="4.63149">
        <ele>469.20001220703</ele>
        <time>2020-10-09T08:25:44.402Z</time>
      </trkpt>
      <trkpt lat="45.80785" lon="4.63145">
        <ele>469.39999389648</ele>
        <time>2020-10-09T08:25:51.925Z</time>
      </trkpt>
      <trkpt lat="45.80776" lon="4.63127">
        <ele>470.39999389648</ele>
        <time>2020-10-09T08:25:59.455Z</time>
      </trkpt>
      <trkpt lat="45.80773" lon="4.63124">
        <ele>470.79998779297</ele>
        <time>2020-10-09T08:26:06.986Z</time>
      </trkpt>
      <trkpt lat="45.80762" lon="4.63112">
        <ele>471.79998779297</ele>
        <time>2020-10-09T08:26:14.523Z</time>
      </trkpt>
      <trkpt lat="45.80756" lon="4.63107">
        <ele>472.20001220703</ele>
        <time>2020-10-09T08:26:22.063Z</time>
      </trkpt>
      <trkpt lat="45.80743" lon="4.63095">
        <ele>473.20001220703</ele>
        <time>2020-10-09T08:26:29.610Z</time>
      </trkpt>
      <trkpt lat="45.80732" lon="4.63085">
        <ele>474</ele>
        <time>2020-10-09T08:26:37.162Z</time>
      </trkpt>
      <trkpt lat="45.80722" lon="4.63073">
        <ele>474.20001220703</ele>
        <time>2020-10-09T08:26:44.720Z</time>
      </trkpt>
      <trkpt lat="45.80708" lon="4.63053">
        <ele>474.39999389648</ele>
        <time>2020-10-09T08:26:52.286Z</time>
      </trkpt>
      <trkpt lat="45.80699" lon="4.63032">
        <ele>475</ele>
        <time>2020-10-09T08:26:59.860Z</time>
      </trkpt>
      <trkpt lat="45.80699" lon="4.63029">
        <ele>475.20001220703</ele>
        <time>2020-10-09T08:27:07.435Z</time>
      </trkpt>
      <trkpt lat="45.807" lon="4.63026">
        <ele>475.39999389648</ele>
        <time>2020-10-09T08:27:15.011Z</time>
      </trkpt>
      <trkpt lat="45.80701" lon="4.63024">
        <ele>475.60000610352</ele>
        <time>2020-10-09T08:27:22.587Z</time>
      </trkpt>
      <trkpt lat="45.80707" lon="4.63024">
        <ele>476.20001220703</ele>
        <time>2020-10-09T08:27:30.166Z</time>
      </trkpt>
      <trkpt lat="45.8071" lon="4.63025">
        <ele>476.79998779297</ele>
        <time>2020-10-09T08:27:37.746Z</time>
      </trkpt>
      <trkpt lat="45.80717" lon="4.63028">
        <ele>478</ele>
        <time>2020-10-09T08:27:45.330Z</time>
      </trkpt>
      <trkpt lat="45.80728" lon="4.63032">
        <ele>479</ele>
        <time>2020-10-09T08:27:52.918Z</time>
      </trkpt>
      <trkpt lat="45.80731" lon="4.63033">
        <ele>479.20001220703</ele>
        <time>2020-10-09T08:28:00.508Z</time>
      </trkpt>
      <trkpt lat="45.80746" lon="4.63039">
        <ele>480.39999389648</ele>
        <time>2020-10-09T08:28:08.104Z</time>
      </trkpt>
      <trkpt lat="45.80751" lon="4.63041">
        <ele>480.79998779297</ele>
        <time>2020-10-09T08:28:15.703Z</time>
      </trkpt>
      <trkpt lat="45.8076" lon="4.63045">
        <ele>481.79998779297</ele>
        <time>2020-10-09T08:28:23.305Z</time>
      </trkpt>
      <trkpt lat="45.80776" lon="4.63051">
        <ele>482.79998779297</ele>
        <time>2020-10-09T08:28:30.915Z</time>
      </trkpt>
      <trkpt lat="45.80779" lon="4.63052">
        <ele>483</ele>
        <time>2020-10-09T08:28:38.526Z</time>
      </trkpt>
      <trkpt lat="45.80786" lon="4.63054">
        <ele>484</ele>
        <time>2020-10-09T08:28:46.140Z</time>
      </trkpt>
      <trkpt lat="45.80795" lon="4.63058">
        <ele>485.20001220703</ele>
        <time>2020-10-09T08:28:53.758Z</time>
      </trkpt>
      <trkpt lat="45.808" lon="4.63059">
        <ele>485.79998779297</ele>
        <time>2020-10-09T08:29:01.378Z</time>
      </trkpt>
      <trkpt lat="45.80804" lon="4.63061">
        <ele>486.39999389648</ele>
        <time>2020-10-09T08:29:09.000Z</time>
      </trkpt>
      <trkpt lat="45.80812" lon="4.63065">
        <ele>487.79998779297</ele>
        <time>2020-10-09T08:29:16.625Z</time>
      </trkpt>
      <trkpt lat="45.80813" lon="4.63066">
        <ele>488.20001220703</ele>
        <time>2020-10-09T08:29:24.251Z</time>
      </trkpt>
      <trkpt lat="45.80817" lon="4.63068">
        <ele>489</ele>
        <time>2020-10-09T08:29:31.879Z</time>
      </trkpt>
      <trkpt lat="45.80822" lon="4.63072">
        <ele>490</ele>
        <time>2020-10-09T08:29:39.509Z</time>
      </trkpt>
      <trkpt lat="45.80824" lon="4.63073">
        <ele>490.39999389648</ele>
        <time>2020-10-09T08:29:47.140Z</time>
      </trkpt>
      <trkpt lat="45.8083" lon="4.63077">
        <ele>491.39999389648</ele>
        <time>2020-10-09T08:29:54.774Z</time>
      </trkpt>
      <trkpt lat="45.80836" lon="4.63079">
        <ele>492.39999389648</ele>
        <time>2020-10-09T08:30:02.411Z</time>
      </trkpt>
      <trkpt lat="45.8084" lon="4.63082">
        <ele>493.39999389648</ele>
        <time>2020-10-09T08:30:10.049Z</time>
      </trkpt>
      <trkpt lat="45.80842" lon="4.63083">
        <ele>493.79998779297</ele>
        <time>2020-10-09T08:30:17.688Z</time>
      </trkpt>
      <trkpt lat="45.80846" lon="4.63086">
        <ele>495.20001220703</ele>
        <time>2020-10-09T08:30:25.329Z</time>
      </trkpt>
      <trkpt lat="45.80853" lon="4.63089">
        <ele>496.20001220703</ele>
        <time>2020-10-09T08:30:32.973Z</time>
      </trkpt>
      <trkpt lat="45.80856" lon="4.63092">
        <ele>497</ele>
        <time>2020-10-09T08:30:40.619Z</time>
      </trkpt>
      <trkpt lat="45.80858" lon="4.63093">
        <ele>497.39999389648</ele>
        <time>2020-10-09T08:30:48.266Z</time>
      </trkpt>
      <trkpt lat="45.80864" lon="4.63099">
        <ele>498.39999389648</ele>
        <time>2020-10-09T08:30:55.916Z</time>
      </trkpt>
      <trkpt lat="45.80866" lon="4.631">
        <ele>498.79998779297</ele>
        <time>2020-10-09T08:31:03.567Z</time>
      </trkpt>
      <trkpt lat="45.80875" lon="4.63102">
        <ele>499.79998779297</ele>
        <time>2020-10-09T08:31:11.222Z</time>
      </trkpt>
      <trkpt lat="45.80879" lon="4.631">
        <ele>500.39999389648</ele>
        <time>2020-10-09T08:31:18.878Z</time>
      </trkpt>
      <trkpt lat="45.80884" lon="4.63094">
        <ele>501.20001220703</ele>
        <time>2020-10-09T08:31:26.537Z</time>
      </trkpt>
      <trkpt lat="45.80888" lon="4.63088">
        <ele>502.20001220703</ele>
        <time>2020-10-09T08:31:34.199Z</time>
      </trkpt>
      <trkpt lat="45.80889" lon="4.63085">
        <ele>502.60000610352</ele>
        <time>2020-10-09T08:31:41.862Z</time>
      </trkpt>
      <trkpt lat="45.80891" lon="4.6308">
        <ele>503.39999389648</ele>
        <time>2020-10-09T08:31:49.526Z</time>
      </trkpt>
      <trkpt lat="45.80894" lon="4.63077">
        <ele>504.60000610352</ele>
        <time>2020-10-09T08:31:57.192Z</time>
      </trkpt>
      <trkpt lat="45.80896" lon="4.63076">
        <ele>505</ele>
        <time>2020-10-09T08:32:04.859Z</time>
      </trkpt>
      <trkpt lat="45.80899" lon="4.63074">
        <ele>505.79998779297</ele>
        <time>2020-10-09T08:32:12.527Z</time>
      </trkpt>
      <trkpt lat="45.80903" lon="4.6307">
        <ele>507</ele>
        <time>2020-10-09T08:32:20.197Z</time>
      </trkpt>
      <trkpt lat="45.80904" lon="4.63068">
        <ele>507.39999389648</ele>
        <time>2020-10-09T08:32:27.868Z</time>
      </trkpt>
      <trkpt lat="45.80907" lon="4.63063">
        <ele>508.20001220703</ele>
        <time>2020-10-09T08:32:35.541Z</time>
      </trkpt>
      <trkpt lat="45.80908" lon="4.63062">
        <ele>508.39999389648</ele>
        <time>2020-10-09T08:32:43.215Z</time>
      </trkpt>
      <trkpt lat="45.80908" lon="4.63062">
        <ele>508.60000610352</ele>
        <time>2020-10-09T08:32:50.889Z</time>
      </trkpt>
      <trkpt lat="45.80908" lon="4.63062">
        <ele>509.20001220703</ele>
        <time>2020-10-09T08:32:58.563Z</time>
      </trkpt>
      <trkpt lat="45.80908" lon="4.63062">
        <ele>509.79998779297</ele>
        <time>2020-10-09T08:33:06.237Z</time>
      </trkpt>
      <trkpt lat="45.80908" lon="4.63062">
        <ele>509.79998779297</ele>
        <time>2020-10-09T08:33:13.911Z</time>
      </trkpt>
      <trkpt lat="45.80908" lon="4.63061">
        <ele>509.79998779297</ele>
        <time>2020-10-09T08:33:21.585Z</time>
      </trkpt>
      <trkpt lat="45.80908" lon="4.63061">
        <ele>509.60000610352</ele>
        <time>2020-10-09T08:33:29.259Z</time>
      </trkpt>
      <trkpt lat="45.80908" lon="4.63061">
        <ele>509.39999389648</ele>
        <time>2020-10-09T08:33:36.933Z</time>
      </trkpt>
      <trkpt lat="45.80908" lon="4.63061">
        <ele>509.39999389648</ele>
        <time>2020-10-09T08:33:44.607Z</time>
      </trkpt>
      <trkpt lat="45.80911" lon="4.63057">
        <ele>509.39999389648</ele>
        <time>2020-10-09T08:33:52.283Z</time>
      </trkpt>
      <trkpt lat="45.80917" lon="4.63049">
        <ele>509.39999389648</ele>
        <time>2020-10-09T08:33:59.962Z</time>
      </trkpt>
      <trkpt lat="45.80917" lon="4.63049">
        <ele>509.60000610352</ele>
        <time>2020-10-09T08:34:07.641Z</time>
      </trkpt>
      <trkpt lat="45.80917" lon="4.63049">
        <ele>509.60000610352</ele>
        <time>2020-10-09T08:34:15.320Z</time>
      </trkpt>
      <trkpt lat="45.80916" lon="4.63049">
        <ele>509.60000610352</ele>
        <time>2020-10-09T08:34:22.999Z</time>
      </trkpt>
      <trkpt lat="45.80917" lon="4.63048">
        <ele>509.39999389648</ele>
        <time>2020-10-09T08:34:30.678Z</time>
      </trkpt>
      <trkpt lat="45.80917" lon="4.63047">
        <ele>509.39999389648</ele>
        <time>2020-10-09T08:34:38.358Z</time>
      </trkpt>
      <trkpt lat="45.80918" lon="4.63045">
        <ele>509.39999389648</ele>
        <time>2020-10-09T08:34:46.039Z</time>
      </trkpt>
      <trkpt lat="45.80918" lon="4.63044">
        <ele>509.39999389648</ele>
        <time>2020-10-09T08:34:53.720Z</time>
      </trkpt>
      <trkpt lat="45.80918" lon="4.63039">
        <ele>509.39999389648</ele>
        <time>2020-10-09T08:35:01.402Z</time>
      </trkpt>
      <trkpt lat="45.80915" lon="4.63026">
        <ele>509.39999389648</ele>
        <time>2020-10-09T08:35:09.088Z</time>
      </trkpt>
      <trkpt lat="45.80911" lon="4.63023">
        <ele>509.39999389648</ele>
        <time>2020-10-09T08:35:16.776Z</time>
      </trkpt>
      <trkpt lat="45.80906" lon="4.63023">
        <ele>509.39999389648</ele>
        <time>2020-10-09T08:35:24.466Z</time>
      </trkpt>
      <trkpt lat="45.80903" lon="4.63024">
        <ele>509.39999389648</ele>
        <time>2020-10-09T08:35:32.158Z</time>
      </trkpt>
      <trkpt lat="45.80903" lon="4.63024">
        <ele>509.60000610352</ele>
        <time>2020-10-09T08:35:39.850Z</time>
      </trkpt>
      <trkpt lat="45.80902" lon="4.63024">
        <ele>509.60000610352</ele>
        <time>2020-10-09T08:35:47.542Z</time>
      </trkpt>
      <trkpt lat="45.80902" lon="4.63024">
        <ele>509.39999389648</ele>
        <time>2020-10-09T08:35:55.234Z</time>
      </trkpt>
      <trkpt lat="45.80902" lon="4.63024">
        <ele>509.39999389648</ele>
        <time>2020-10-09T08:36:02.926Z</time>
      </trkpt>
      <trkpt lat="45.80901" lon="4.63025">
        <ele>509.20001220703</ele>
        <time>2020-10-09T08:36:10.619Z</time>
      </trkpt>
      <trkpt lat="45.80901" lon="4.63026">
        <ele>509.20001220703</ele>
        <time>2020-10-09T08:36:18.312Z</time>
      </trkpt>
      <trkpt lat="45.80899" lon="4.63036">
        <ele>509.20001220703</ele>
        <time>2020-10-09T08:36:26.008Z</time>
      </trkpt>
      <trkpt lat="45.80897" lon="4.63059">
        <ele>508.39999389648</ele>
        <time>2020-10-09T08:36:33.711Z</time>
      </trkpt>
      <trkpt lat="45.80896" lon="4.63066">
        <ele>508.20001220703</ele>
        <time>2020-10-09T08:36:41.416Z</time>
      </trkpt>
      <trkpt lat="45.80888" lon="4.63092">
        <ele>507.39999389648</ele>
        <time>2020-10-09T08:36:49.130Z</time>
      </trkpt>
      <trkpt lat="45.80886" lon="4.63095">
        <ele>507.20001220703</ele>
        <time>2020-10-09T08:36:56.845Z</time>
      </trkpt>
      <trkpt lat="45.80878" lon="4.63103">
        <ele>506.79998779297</ele>
        <time>2020-10-09T08:37:04.564Z</time>
      </trkpt>
      <trkpt lat="45.80875" lon="4.63104">
        <ele>506.39999389648</ele>
        <time>2020-10-09T08:37:12.284Z</time>
      </trkpt>
      <trkpt lat="45.80871" lon="4.63102">
        <ele>505</ele>
        <time>2020-10-09T08:37:20.006Z</time>
      </trkpt>
      <trkpt lat="45.80869" lon="4.63101">
        <ele>504.39999389648</ele>
        <time>2020-10-09T08:37:27.729Z</time>
      </trkpt>
      <trkpt lat="45.80867" lon="4.63101">
        <ele>504</ele>
        <time>2020-10-09T08:37:35.453Z</time>
      </trkpt>
      <trkpt lat="45.80865" lon="4.63104">
        <ele>503</ele>
        <time>2020-10-09T08:37:43.178Z</time>
      </trkpt>
      <trkpt lat="45.80869" lon="4.63112">
        <ele>502</ele>
        <time>2020-10-09T08:37:50.906Z</time>
      </trkpt>
      <trkpt lat="45.80871" lon="4.63116">
        <ele>501.60000610352</ele>
        <time>2020-10-09T08:37:58.636Z</time>
      </trkpt>
      <trkpt lat="45.8088" lon="4.63131">
        <ele>500.79998779297</ele>
        <time>2020-10-09T08:38:06.372Z</time>
      </trkpt>
      <trkpt lat="45.80882" lon="4.63133">
        <ele>500.60000610352</ele>
        <time>2020-10-09T08:38:14.108Z</time>
      </trkpt>
      <trkpt lat="45.80893" lon="4.6315">
        <ele>500.39999389648</ele>
        <time>2020-10-09T08:38:21.851Z</time>
      </trkpt>
      <trkpt lat="45.80906" lon="4.6317">
        <ele>501.20001220703</ele>
        <time>2020-10-09T08:38:29.603Z</time>
      </trkpt>
      <trkpt lat="45.80915" lon="4.63187">
        <ele>501.79998779297</ele>
        <time>2020-10-09T08:38:37.361Z</time>
      </trkpt>
      <trkpt lat="45.80916" lon="4.6319">
        <ele>501.79998779297</ele>
        <time>2020-10-09T08:38:45.120Z</time>
      </trkpt>
      <trkpt lat="45.80926" lon="4.63209">
        <ele>502.20001220703</ele>
        <time>2020-10-09T08:38:52.886Z</time>
      </trkpt>
      <trkpt lat="45.80938" lon="4.63226">
        <ele>502.20001220703</ele>
        <time>2020-10-09T08:39:00.659Z</time>
      </trkpt>
      <trkpt lat="45.80949" lon="4.63242">
        <ele>502.60000610352</ele>
        <time>2020-10-09T08:39:08.439Z</time>
      </trkpt>
      <trkpt lat="45.80953" lon="4.63249">
        <ele>503</ele>
        <time>2020-10-09T08:39:16.222Z</time>
      </trkpt>
      <trkpt lat="45.80963" lon="4.63264">
        <ele>503.79998779297</ele>
        <time>2020-10-09T08:39:24.011Z</time>
      </trkpt>
      <trkpt lat="45.80982" lon="4.63291">
        <ele>503.79998779297</ele>
        <time>2020-10-09T08:39:31.811Z</time>
      </trkpt>
      <trkpt lat="45.81001" lon="4.63297">
        <ele>503.79998779297</ele>
        <time>2020-10-09T08:39:39.620Z</time>
      </trkpt>
      <trkpt lat="45.81021" lon="4.63306">
        <ele>504</ele>
        <time>2020-10-09T08:39:47.437Z</time>
      </trkpt>
      <trkpt lat="45.8104" lon="4.63314">
        <ele>503.79998779297</ele>
        <time>2020-10-09T08:39:55.263Z</time>
      </trkpt>
      <trkpt lat="45.81066" lon="4.63324">
        <ele>503.60000610352</ele>
        <time>2020-10-09T08:40:03.100Z</time>
      </trkpt>
      <trkpt lat="45.8108" lon="4.63329">
        <ele>502.79998779297</ele>
        <time>2020-10-09T08:40:10.943Z</time>
      </trkpt>
      <trkpt lat="45.81091" lon="4.63334">
        <ele>502</ele>
        <time>2020-10-09T08:40:18.791Z</time>
      </trkpt>
      <trkpt lat="45.81098" lon="4.63337">
        <ele>500.79998779297</ele>
        <time>2020-10-09T08:40:26.642Z</time>
      </trkpt>
      <trkpt lat="45.81105" lon="4.63339">
        <ele>499.60000610352</ele>
        <time>2020-10-09T08:40:34.496Z</time>
      </trkpt>
      <trkpt lat="45.81111" lon="4.63341">
        <ele>498</ele>
        <time>2020-10-09T08:40:42.353Z</time>
      </trkpt>
      <trkpt lat="45.81115" lon="4.63342">
        <ele>497</ele>
        <time>2020-10-09T08:40:50.212Z</time>
      </trkpt>
      <trkpt lat="45.81118" lon="4.63343">
        <ele>496.20001220703</ele>
        <time>2020-10-09T08:40:58.072Z</time>
      </trkpt>
      <trkpt lat="45.81122" lon="4.63346">
        <ele>495.60000610352</ele>
        <time>2020-10-09T08:41:05.934Z</time>
      </trkpt>
      <trkpt lat="45.81129" lon="4.63351">
        <ele>494.20001220703</ele>
        <time>2020-10-09T08:41:13.800Z</time>
      </trkpt>
      <trkpt lat="45.81137" lon="4.63359">
        <ele>493.20001220703</ele>
        <time>2020-10-09T08:41:21.670Z</time>
      </trkpt>
      <trkpt lat="45.81145" lon="4.63371">
        <ele>492.20001220703</ele>
        <time>2020-10-09T08:41:29.544Z</time>
      </trkpt>
      <trkpt lat="45.81149" lon="4.63376">
        <ele>491.39999389648</ele>
        <time>2020-10-09T08:41:37.421Z</time>
      </trkpt>
      <trkpt lat="45.81153" lon="4.63383">
        <ele>490.79998779297</ele>
        <time>2020-10-09T08:41:45.300Z</time>
      </trkpt>
      <trkpt lat="45.81162" lon="4.63395">
        <ele>489.39999389648</ele>
        <time>2020-10-09T08:41:53.185Z</time>
      </trkpt>
      <trkpt lat="45.81169" lon="4.63405">
        <ele>487.79998779297</ele>
        <time>2020-10-09T08:42:01.074Z</time>
      </trkpt>
      <trkpt lat="45.81176" lon="4.63409">
        <ele>486.39999389648</ele>
        <time>2020-10-09T08:42:08.966Z</time>
      </trkpt>
      <trkpt lat="45.81179" lon="4.63409">
        <ele>485.79998779297</ele>
        <time>2020-10-09T08:42:16.860Z</time>
      </trkpt>
      <trkpt lat="45.81183" lon="4.6341">
        <ele>485.39999389648</ele>
        <time>2020-10-09T08:42:24.755Z</time>
      </trkpt>
      <trkpt lat="45.81197" lon="4.63419">
        <ele>484.79998779297</ele>
        <time>2020-10-09T08:42:32.657Z</time>
      </trkpt>
      <trkpt lat="45.81201" lon="4.63423">
        <ele>484.60000610352</ele>
        <time>2020-10-09T08:42:40.561Z</time>
      </trkpt>
      <trkpt lat="45.81226" lon="4.63448">
        <ele>484.20001220703</ele>
        <time>2020-10-09T08:42:48.478Z</time>
      </trkpt>
      <trkpt lat="45.81242" lon="4.6345">
        <ele>483.20001220703</ele>
        <time>2020-10-09T08:42:56.402Z</time>
      </trkpt>
      <trkpt lat="45.81253" lon="4.63437">
        <ele>482.20001220703</ele>
        <time>2020-10-09T08:43:04.332Z</time>
      </trkpt>
      <trkpt lat="45.81256" lon="4.63431">
        <ele>482</ele>
        <time>2020-10-09T08:43:12.264Z</time>
      </trkpt>
      <trkpt lat="45.81274" lon="4.63399">
        <ele>481.79998779297</ele>
        <time>2020-10-09T08:43:20.208Z</time>
      </trkpt>
      <trkpt lat="45.81291" lon="4.63357">
        <ele>481.39999389648</ele>
        <time>2020-10-09T08:43:28.167Z</time>
      </trkpt>
      <trkpt lat="45.81294" lon="4.63349">
        <ele>481</ele>
        <time>2020-10-09T08:43:36.128Z</time>
      </trkpt>
      <trkpt lat="45.813" lon="4.6333">
        <ele>479.60000610352</ele>
        <time>2020-10-09T08:43:44.096Z</time>
      </trkpt>
      <trkpt lat="45.81302" lon="4.63325">
        <ele>479.20001220703</ele>
        <time>2020-10-09T08:43:52.065Z</time>
      </trkpt>
      <trkpt lat="45.81305" lon="4.63317">
        <ele>478.20001220703</ele>
        <time>2020-10-09T08:44:00.037Z</time>
      </trkpt>
      <trkpt lat="45.81307" lon="4.63311">
        <ele>477</ele>
        <time>2020-10-09T08:44:08.011Z</time>
      </trkpt>
      <trkpt lat="45.81311" lon="4.63303">
        <ele>475.20001220703</ele>
        <time>2020-10-09T08:44:15.988Z</time>
      </trkpt>
      <trkpt lat="45.81313" lon="4.63301">
        <ele>475</ele>
        <time>2020-10-09T08:44:23.966Z</time>
      </trkpt>
      <trkpt lat="45.81314" lon="4.63301">
        <ele>474.39999389648</ele>
        <time>2020-10-09T08:44:31.944Z</time>
      </trkpt>
      <trkpt lat="45.81316" lon="4.63301">
        <ele>474</ele>
        <time>2020-10-09T08:44:39.923Z</time>
      </trkpt>
      <trkpt lat="45.81322" lon="4.63293">
        <ele>473.20001220703</ele>
        <time>2020-10-09T08:44:47.906Z</time>
      </trkpt>
      <trkpt lat="45.81325" lon="4.63289">
        <ele>472.79998779297</ele>
        <time>2020-10-09T08:44:55.890Z</time>
      </trkpt>
      <trkpt lat="45.8133" lon="4.6328">
        <ele>471.60000610352</ele>
        <time>2020-10-09T08:45:03.878Z</time>
      </trkpt>
      <trkpt lat="45.81331" lon="4.63278">
        <ele>471</ele>
        <time>2020-10-09T08:45:11.867Z</time>
      </trkpt>
      <trkpt lat="45.81333" lon="4.63277">
        <ele>470.60000610352</ele>
        <time>2020-10-09T08:45:19.856Z</time>
      </trkpt>
      <trkpt lat="45.81334" lon="4.63279">
        <ele>470</ele>
        <time>2020-10-09T08:45:27.846Z</time>
      </trkpt>
      <trkpt lat="45.81337" lon="4.63284">
        <ele>468.79998779297</ele>
        <time>2020-10-09T08:45:35.838Z</time>
      </trkpt>
      <trkpt lat="45.81339" lon="4.63288">
        <ele>468</ele>
        <time>2020-10-09T08:45:43.831Z</time>
      </trkpt>
      <trkpt lat="45.81341" lon="4.63291">
        <ele>467.39999389648</ele>
        <time>2020-10-09T08:45:51.826Z</time>
      </trkpt>
      <trkpt lat="45.81343" lon="4.63295">
        <ele>467.20001220703</ele>
        <time>2020-10-09T08:45:59.822Z</time>
      </trkpt>
      <trkpt lat="45.81351" lon="4.63309">
        <ele>466.79998779297</ele>
        <time>2020-10-09T08:46:07.824Z</time>
      </trkpt>
      <trkpt lat="45.81359" lon="4.63303">
        <ele>466.39999389648</ele>
        <time>2020-10-09T08:46:15.829Z</time>
      </trkpt>
      <trkpt lat="45.81363" lon="4.63295">
        <ele>466.20001220703</ele>
        <time>2020-10-09T08:46:23.837Z</time>
      </trkpt>
      <trkpt lat="45.81371" lon="4.63282">
        <ele>466</ele>
        <time>2020-10-09T08:46:31.850Z</time>
      </trkpt>
      <trkpt lat="45.81382" lon="4.63264">
        <ele>465</ele>
        <time>2020-10-09T08:46:39.870Z</time>
      </trkpt>
      <trkpt lat="45.81387" lon="4.63257">
        <ele>463.39999389648</ele>
        <time>2020-10-09T08:46:47.894Z</time>
      </trkpt>
      <trkpt lat="45.8139" lon="4.63257">
        <ele>462.39999389648</ele>
        <time>2020-10-09T08:46:55.919Z</time>
      </trkpt>
      <trkpt lat="45.81393" lon="4.63257">
        <ele>461.60000610352</ele>
        <time>2020-10-09T08:47:03.945Z</time>
      </trkpt>
      <trkpt lat="45.814" lon="4.63261">
        <ele>460</ele>
        <time>2020-10-09T08:47:11.974Z</time>
      </trkpt>
      <trkpt lat="45.81408" lon="4.63265">
        <ele>458.39999389648</ele>
        <time>2020-10-09T08:47:20.007Z</time>
      </trkpt>
      <trkpt lat="45.81422" lon="4.63271">
        <ele>457.20001220703</ele>
        <time>2020-10-09T08:47:28.046Z</time>
      </trkpt>
      <trkpt lat="45.81426" lon="4.63274">
        <ele>457</ele>
        <time>2020-10-09T08:47:36.087Z</time>
      </trkpt>
      <trkpt lat="45.8145" lon="4.63286">
        <ele>456</ele>
        <time>2020-10-09T08:47:44.139Z</time>
      </trkpt>
      <trkpt lat="45.81465" lon="4.63282">
        <ele>454.79998779297</ele>
        <time>2020-10-09T08:47:52.197Z</time>
      </trkpt>
      <trkpt lat="45.81468" lon="4.63283">
        <ele>454.39999389648</ele>
        <time>2020-10-09T08:48:00.257Z</time>
      </trkpt>
      <trkpt lat="45.81476" lon="4.63287">
        <ele>454.20001220703</ele>
        <time>2020-10-09T08:48:08.320Z</time>
      </trkpt>
      <trkpt lat="45.81485" lon="4.63297">
        <ele>453.79998779297</ele>
        <time>2020-10-09T08:48:16.388Z</time>
      </trkpt>
      <trkpt lat="45.81488" lon="4.63301">
        <ele>453.60000610352</ele>
        <time>2020-10-09T08:48:24.458Z</time>
      </trkpt>
      <trkpt lat="45.81496" lon="4.63308">
        <ele>452.20001220703</ele>
        <time>2020-10-09T08:48:32.532Z</time>
      </trkpt>
      <trkpt lat="45.81503" lon="4.63308">
        <ele>451.60000610352</ele>
        <time>2020-10-09T08:48:40.609Z</time>
      </trkpt>
      <trkpt lat="45.8151" lon="4.63307">
        <ele>451</ele>
        <time>2020-10-09T08:48:48.689Z</time>
      </trkpt>
      <trkpt lat="45.81521" lon="4.63307">
        <ele>450.39999389648</ele>
        <time>2020-10-09T08:48:56.774Z</time>
      </trkpt>
      <trkpt lat="45.81528" lon="4.63307">
        <ele>449.60000610352</ele>
        <time>2020-10-09T08:49:04.862Z</time>
      </trkpt>
      <trkpt lat="45.81532" lon="4.63305">
        <ele>448.79998779297</ele>
        <time>2020-10-09T08:49:12.951Z</time>
      </trkpt>
      <trkpt lat="45.81534" lon="4.63302">
        <ele>448.20001220703</ele>
        <time>2020-10-09T08:49:21.042Z</time>
      </trkpt>
      <trkpt lat="45.8154" lon="4.63295">
        <ele>446.39999389648</ele>
        <time>2020-10-09T08:49:29.136Z</time>
      </trkpt>
      <trkpt lat="45.81546" lon="4.63286">
        <ele>445.20001220703</ele>
        <time>2020-10-09T08:49:37.233Z</time>
      </trkpt>
      <trkpt lat="45.81548" lon="4.63282">
        <ele>444.60000610352</ele>
        <time>2020-10-09T08:49:45.332Z</time>
      </trkpt>
      <trkpt lat="45.81551" lon="4.63278">
        <ele>444</ele>
        <time>2020-10-09T08:49:53.433Z</time>
      </trkpt>
      <trkpt lat="45.81558" lon="4.63271">
        <ele>442.39999389648</ele>
        <time>2020-10-09T08:50:01.537Z</time>
      </trkpt>
      <trkpt lat="45.81565" lon="4.63264">
        <ele>441.20001220703</ele>
        <time>2020-10-09T08:50:09.645Z</time>
      </trkpt>
      <trkpt lat="45.81573" lon="4.63257">
        <ele>439.79998779297</ele>
        <time>2020-10-09T08:50:17.757Z</time>
      </trkpt>
      <trkpt lat="45.81582" lon="4.63249">
        <ele>438.79998779297</ele>
        <time>2020-10-09T08:50:25.873Z</time>
      </trkpt>
      <trkpt lat="45.81591" lon="4.63241">
        <ele>437.39999389648</ele>
        <time>2020-10-09T08:50:33.994Z</time>
      </trkpt>
      <trkpt lat="45.816" lon="4.63233">
        <ele>436</ele>
        <time>2020-10-09T08:50:42.120Z</time>
      </trkpt>
      <trkpt lat="45.8161" lon="4.63224">
        <ele>434.39999389648</ele>
        <time>2020-10-09T08:50:50.251Z</time>
      </trkpt>
      <trkpt lat="45.81619" lon="4.63215">
        <ele>433.39999389648</ele>
        <time>2020-10-09T08:50:58.386Z</time>
      </trkpt>
      <trkpt lat="45.81624" lon="4.63211">
        <ele>433</ele>
        <time>2020-10-09T08:51:06.524Z</time>
      </trkpt>
      <trkpt lat="45.81634" lon="4.63201">
        <ele>431.79998779297</ele>
        <time>2020-10-09T08:51:14.667Z</time>
      </trkpt>
      <trkpt lat="45.81645" lon="4.6319">
        <ele>430.60000610352</ele>
        <time>2020-10-09T08:51:22.816Z</time>
      </trkpt>
      <trkpt lat="45.81648" lon="4.63187">
        <ele>430.20001220703</ele>
        <time>2020-10-09T08:51:30.966Z</time>
      </trkpt>
      <trkpt lat="45.81652" lon="4.63184">
        <ele>429.39999389648</ele>
        <time>2020-10-09T08:51:39.118Z</time>
      </trkpt>
      <trkpt lat="45.81652" lon="4.63184">
        <ele>429</ele>
        <time>2020-10-09T08:51:47.270Z</time>
      </trkpt>
      <trkpt lat="45.81653" lon="4.63184">
        <ele>428.60000610352</ele>
        <time>2020-10-09T08:51:55.423Z</time>
      </trkpt>
      <trkpt lat="45.81653" lon="4.63184">
        <ele>428.79998779297</ele>
        <time>2020-10-09T08:52:03.576Z</time>
      </trkpt>
      <trkpt lat="45.81654" lon="4.63182">
        <ele>428.79998779297</ele>
        <time>2020-10-09T08:52:11.729Z</time>
      </trkpt>
      <trkpt lat="45.81653" lon="4.63179">
        <ele>428.79998779297</ele>
        <time>2020-10-09T08:52:19.883Z</time>
      </trkpt>
      <trkpt lat="45.81649" lon="4.63157">
        <ele>428.79998779297</ele>
        <time>2020-10-09T08:52:28.044Z</time>
      </trkpt>
      <trkpt lat="45.81643" lon="4.63133">
        <ele>428.39999389648</ele>
        <time>2020-10-09T08:52:36.213Z</time>
      </trkpt>
      <trkpt lat="45.81642" lon="4.63127">
        <ele>428.39999389648</ele>
        <time>2020-10-09T08:52:44.383Z</time>
      </trkpt>
      <trkpt lat="45.81631" lon="4.63081">
        <ele>427.39999389648</ele>
        <time>2020-10-09T08:52:52.568Z</time>
      </trkpt>
      <trkpt lat="45.8163" lon="4.63074">
        <ele>427.20001220703</ele>
        <time>2020-10-09T08:53:00.755Z</time>
      </trkpt>
      <trkpt lat="45.81626" lon="4.63048">
        <ele>426.79998779297</ele>
        <time>2020-10-09T08:53:08.950Z</time>
      </trkpt>
      <trkpt lat="45.81626" lon="4.63036">
        <ele>426.20001220703</ele>
        <time>2020-10-09T08:53:17.148Z</time>
      </trkpt>
      <trkpt lat="45.81625" lon="4.63031">
        <ele>426</ele>
        <time>2020-10-09T08:53:25.348Z</time>
      </trkpt>
      <trkpt lat="45.81622" lon="4.63002">
        <ele>424.79998779297</ele>
        <time>2020-10-09T08:53:33.557Z</time>
      </trkpt>
      <trkpt lat="45.81619" lon="4.62952">
        <ele>423.79998779297</ele>
        <time>2020-10-09T08:53:41.781Z</time>
      </trkpt>
      <trkpt lat="45.81619" lon="4.62922">
        <ele>422.39999389648</ele>
        <time>2020-10-09T08:53:50.014Z</time>
      </trkpt>
      <trkpt lat="45.81618" lon="4.62902">
        <ele>421.20001220703</ele>
        <time>2020-10-09T08:53:58.253Z</time>
      </trkpt>
      <trkpt lat="45.81618" lon="4.62892">
        <ele>420.79998779297</ele>
        <time>2020-10-09T08:54:06.494Z</time>
      </trkpt>
      <trkpt lat="45.81619" lon="4.62874">
        <ele>420</ele>
        <time>2020-10-09T08:54:14.741Z</time>
      </trkpt>
      <trkpt lat="45.8162" lon="4.62854">
        <ele>418.60000610352</ele>
        <time>2020-10-09T08:54:22.994Z</time>
      </trkpt>
      <trkpt lat="45.81619" lon="4.62832">
        <ele>418</ele>
        <time>2020-10-09T08:54:31.253Z</time>
      </trkpt>
      <trkpt lat="45.81618" lon="4.62821">
        <ele>417.39999389648</ele>
        <time>2020-10-09T08:54:39.516Z</time>
      </trkpt>
      <trkpt lat="45.81614" lon="4.62789">
        <ele>416.39999389648</ele>
        <time>2020-10-09T08:54:47.788Z</time>
      </trkpt>
      <trkpt lat="45.81613" lon="4.62778">
        <ele>415.79998779297</ele>
        <time>2020-10-09T08:54:56.064Z</time>
      </trkpt>
      <trkpt lat="45.81613" lon="4.62766">
        <ele>415.39999389648</ele>
        <time>2020-10-09T08:55:04.343Z</time>
      </trkpt>
      <trkpt lat="45.81615" lon="4.62742">
        <ele>413.79998779297</ele>
        <time>2020-10-09T08:55:12.630Z</time>
      </trkpt>
      <trkpt lat="45.81617" lon="4.6273">
        <ele>413</ele>
        <time>2020-10-09T08:55:20.920Z</time>
      </trkpt>
      <trkpt lat="45.81618" lon="4.62718">
        <ele>412.39999389648</ele>
        <time>2020-10-09T08:55:29.214Z</time>
      </trkpt>
      <trkpt lat="45.81619" lon="4.62695">
        <ele>410.79998779297</ele>
        <time>2020-10-09T08:55:37.515Z</time>
      </trkpt>
      <trkpt lat="45.81617" lon="4.62683">
        <ele>410</ele>
        <time>2020-10-09T08:55:45.819Z</time>
      </trkpt>
      <trkpt lat="45.81615" lon="4.62673">
        <ele>409.20001220703</ele>
        <time>2020-10-09T08:55:54.127Z</time>
      </trkpt>
      <trkpt lat="45.81609" lon="4.62652">
        <ele>408.20001220703</ele>
        <time>2020-10-09T08:56:02.441Z</time>
      </trkpt>
      <trkpt lat="45.81606" lon="4.62643">
        <ele>408</ele>
        <time>2020-10-09T08:56:10.758Z</time>
      </trkpt>
      <trkpt lat="45.81596" lon="4.62602">
        <ele>407.60000610352</ele>
        <time>2020-10-09T08:56:19.088Z</time>
      </trkpt>
      <trkpt lat="45.81592" lon="4.62576">
        <ele>407.60000610352</ele>
        <time>2020-10-09T08:56:27.426Z</time>
      </trkpt>
      <trkpt lat="45.8159" lon="4.62562">
        <ele>408</ele>
        <time>2020-10-09T08:56:35.768Z</time>
      </trkpt>
      <trkpt lat="45.81588" lon="4.62536">
        <ele>409.39999389648</ele>
        <time>2020-10-09T08:56:44.118Z</time>
      </trkpt>
      <trkpt lat="45.81586" lon="4.62523">
        <ele>410.39999389648</ele>
        <time>2020-10-09T08:56:52.472Z</time>
      </trkpt>
      <trkpt lat="45.81577" lon="4.62478">
        <ele>410.79998779297</ele>
        <time>2020-10-09T08:57:00.840Z</time>
      </trkpt>
      <trkpt lat="45.81572" lon="4.62429">
        <ele>410.79998779297</ele>
        <time>2020-10-09T08:57:09.223Z</time>
      </trkpt>
      <trkpt lat="45.81572" lon="4.6239">
        <ele>410.79998779297</ele>
        <time>2020-10-09T08:57:17.617Z</time>
      </trkpt>
      <trkpt lat="45.81571" lon="4.62384">
        <ele>410.79998779297</ele>
        <time>2020-10-09T08:57:26.013Z</time>
      </trkpt>
      <trkpt lat="45.81567" lon="4.62371">
        <ele>410.60000610352</ele>
        <time>2020-10-09T08:57:34.414Z</time>
      </trkpt>
      <trkpt lat="45.81562" lon="4.62348">
        <ele>410.39999389648</ele>
        <time>2020-10-09T08:57:42.822Z</time>
      </trkpt>
      <trkpt lat="45.81558" lon="4.62334">
        <ele>410.39999389648</ele>
        <time>2020-10-09T08:57:51.234Z</time>
      </trkpt>
      <trkpt lat="45.81551" lon="4.62305">
        <ele>410</ele>
        <time>2020-10-09T08:57:59.655Z</time>
      </trkpt>
      <trkpt lat="45.8154" lon="4.62264">
        <ele>409.60000610352</ele>
        <time>2020-10-09T08:58:08.089Z</time>
      </trkpt>
      <trkpt lat="45.81537" lon="4.62255">
        <ele>409.39999389648</ele>
        <time>2020-10-09T08:58:16.526Z</time>
      </trkpt>
      <trkpt lat="45.81534" lon="4.62246">
        <ele>409.39999389648</ele>
        <time>2020-10-09T08:58:24.966Z</time>
      </trkpt>
      <trkpt lat="45.81519" lon="4.62206">
        <ele>408.39999389648</ele>
        <time>2020-10-09T08:58:33.420Z</time>
      </trkpt>
      <trkpt lat="45.81517" lon="4.62199">
        <ele>408.20001220703</ele>
        <time>2020-10-09T08:58:41.876Z</time>
      </trkpt>
      <trkpt lat="45.81511" lon="4.62184">
        <ele>407.20001220703</ele>
        <time>2020-10-09T08:58:50.337Z</time>
      </trkpt>
      <trkpt lat="45.8151" lon="4.62182">
        <ele>407</ele>
        <time>2020-10-09T08:58:58.799Z</time>
      </trkpt>
      <trkpt lat="45.81509" lon="4.62177">
        <ele>406.60000610352</ele>
        <time>2020-10-09T08:59:07.263Z</time>
      </trkpt>
      <trkpt lat="45.81509" lon="4.62176">
        <ele>406.39999389648</ele>
        <time>2020-10-09T08:59:15.727Z</time>
      </trkpt>
      <trkpt lat="45.81509" lon="4.62176">
        <ele>406</ele>
        <time>2020-10-09T08:59:24.191Z</time>
      </trkpt>
      <trkpt lat="45.81509" lon="4.62174">
        <ele>405.60000610352</ele>
        <time>2020-10-09T08:59:32.655Z</time>
      </trkpt>
      <trkpt lat="45.81509" lon="4.62173">
        <ele>405.60000610352</ele>
        <time>2020-10-09T08:59:41.120Z</time>
      </trkpt>
      <trkpt lat="45.81509" lon="4.62173">
        <ele>405.39999389648</ele>
        <time>2020-10-09T08:59:49.585Z</time>
      </trkpt>
      <trkpt lat="45.81509" lon="4.62171">
        <ele>405.20001220703</ele>
        <time>2020-10-09T08:59:58.050Z</time>
      </trkpt>
      <trkpt lat="45.81508" lon="4.62167">
        <ele>405.20001220703</ele>
        <time>2020-10-09T09:00:06.517Z</time>
      </trkpt>
      <trkpt lat="45.81504" lon="4.62149">
        <ele>405.20001220703</ele>
        <time>2020-10-09T09:00:14.989Z</time>
      </trkpt>
      <trkpt lat="45.81499" lon="4.62125">
        <ele>405</ele>
        <time>2020-10-09T09:00:23.469Z</time>
      </trkpt>
      <trkpt lat="45.81495" lon="4.62111">
        <ele>404.60000610352</ele>
        <time>2020-10-09T09:00:31.953Z</time>
      </trkpt>
      <trkpt lat="45.81485" lon="4.62074">
        <ele>403.79998779297</ele>
        <time>2020-10-09T09:00:40.449Z</time>
      </trkpt>
      <trkpt lat="45.81483" lon="4.62067">
        <ele>403.60000610352</ele>
        <time>2020-10-09T09:00:48.947Z</time>
      </trkpt>
      <trkpt lat="45.81481" lon="4.6205">
        <ele>402.79998779297</ele>
        <time>2020-10-09T09:00:57.451Z</time>
      </trkpt>
      <trkpt lat="45.81477" lon="4.62027">
        <ele>401.60000610352</ele>
        <time>2020-10-09T09:01:05.962Z</time>
      </trkpt>
      <trkpt lat="45.81475" lon="4.6202">
        <ele>401.20001220703</ele>
        <time>2020-10-09T09:01:14.475Z</time>
      </trkpt>
      <trkpt lat="45.81469" lon="4.61996">
        <ele>399.79998779297</ele>
        <time>2020-10-09T09:01:22.995Z</time>
      </trkpt>
      <trkpt lat="45.81468" lon="4.61982">
        <ele>398.79998779297</ele>
        <time>2020-10-09T09:01:31.520Z</time>
      </trkpt>
      <trkpt lat="45.81467" lon="4.61957">
        <ele>397.20001220703</ele>
        <time>2020-10-09T09:01:40.052Z</time>
      </trkpt>
      <trkpt lat="45.81466" lon="4.61942">
        <ele>396</ele>
        <time>2020-10-09T09:01:48.588Z</time>
      </trkpt>
      <trkpt lat="45.81465" lon="4.61928">
        <ele>395</ele>
        <time>2020-10-09T09:01:57.129Z</time>
      </trkpt>
      <trkpt lat="45.81464" lon="4.61915">
        <ele>392.60000610352</ele>
        <time>2020-10-09T09:02:05.674Z</time>
      </trkpt>
      <trkpt lat="45.81464" lon="4.6191">
        <ele>391.79998779297</ele>
        <time>2020-10-09T09:02:14.220Z</time>
      </trkpt>
      <trkpt lat="45.81463" lon="4.61905">
        <ele>391</ele>
        <time>2020-10-09T09:02:22.768Z</time>
      </trkpt>
      <trkpt lat="45.81462" lon="4.61894">
        <ele>389.60000610352</ele>
        <time>2020-10-09T09:02:31.319Z</time>
      </trkpt>
      <trkpt lat="45.81462" lon="4.61886">
        <ele>387.60000610352</ele>
        <time>2020-10-09T09:02:39.872Z</time>
      </trkpt>
      <trkpt lat="45.81462" lon="4.61882">
        <ele>386.39999389648</ele>
        <time>2020-10-09T09:02:48.427Z</time>
      </trkpt>
      <trkpt lat="45.81461" lon="4.61874">
        <ele>385.20001220703</ele>
        <time>2020-10-09T09:02:56.984Z</time>
      </trkpt>
      <trkpt lat="45.81461" lon="4.61862">
        <ele>383.79998779297</ele>
        <time>2020-10-09T09:03:05.545Z</time>
      </trkpt>
      <trkpt lat="45.81461" lon="4.61852">
        <ele>383</ele>
        <time>2020-10-09T09:03:14.108Z</time>
      </trkpt>
      <trkpt lat="45.81461" lon="4.61847">
        <ele>382.39999389648</ele>
        <time>2020-10-09T09:03:22.673Z</time>
      </trkpt>
      <trkpt lat="45.8146" lon="4.61832">
        <ele>381.20001220703</ele>
        <time>2020-10-09T09:03:31.242Z</time>
      </trkpt>
      <trkpt lat="45.8146" lon="4.61827">
        <ele>380.60000610352</ele>
        <time>2020-10-09T09:03:39.813Z</time>
      </trkpt>
      <trkpt lat="45.81459" lon="4.61818">
        <ele>379.60000610352</ele>
        <time>2020-10-09T09:03:48.387Z</time>
      </trkpt>
      <trkpt lat="45.81458" lon="4.61808">
        <ele>378.39999389648</ele>
        <time>2020-10-09T09:03:56.964Z</time>
      </trkpt>
      <trkpt lat="45.81456" lon="4.61798">
        <ele>377.20001220703</ele>
        <time>2020-10-09T09:04:05.544Z</time>
      </trkpt>
      <trkpt lat="45.81456" lon="4.61793">
        <ele>376.60000610352</ele>
        <time>2020-10-09T09:04:14.125Z</time>
      </trkpt>
      <trkpt lat="45.81455" lon="4.61789">
        <ele>376</ele>
        <time>2020-10-09T09:04:22.707Z</time>
      </trkpt>
      <trkpt lat="45.81453" lon="4.6178">
        <ele>374.79998779297</ele>
        <time>2020-10-09T09:04:31.292Z</time>
      </trkpt>
      <trkpt lat="45.8145" lon="4.61759">
        <ele>373.79998779297</ele>
        <time>2020-10-09T09:04:39.884Z</time>
      </trkpt>
      <trkpt lat="45.81447" lon="4.61742">
        <ele>372.20001220703</ele>
        <time>2020-10-09T09:04:48.481Z</time>
      </trkpt>
      <trkpt lat="45.81444" lon="4.61725">
        <ele>371.20001220703</ele>
        <time>2020-10-09T09:04:57.083Z</time>
      </trkpt>
      <trkpt lat="45.81443" lon="4.61715">
        <ele>370.20001220703</ele>
        <time>2020-10-09T09:05:05.688Z</time>
      </trkpt>
      <trkpt lat="45.81442" lon="4.6171">
        <ele>369.60000610352</ele>
        <time>2020-10-09T09:05:14.295Z</time>
      </trkpt>
      <trkpt lat="45.81441" lon="4.617">
        <ele>368.79998779297</ele>
        <time>2020-10-09T09:05:22.905Z</time>
      </trkpt>
      <trkpt lat="45.8144" lon="4.61684">
        <ele>367.60000610352</ele>
        <time>2020-10-09T09:05:31.519Z</time>
      </trkpt>
      <trkpt lat="45.81439" lon="4.61679">
        <ele>367</ele>
        <time>2020-10-09T09:05:40.135Z</time>
      </trkpt>
      <trkpt lat="45.8144" lon="4.61666">
        <ele>366.39999389648</ele>
        <time>2020-10-09T09:05:48.755Z</time>
      </trkpt>
      <trkpt lat="45.81442" lon="4.6166">
        <ele>366</ele>
        <time>2020-10-09T09:05:57.377Z</time>
      </trkpt>
      <trkpt lat="45.81445" lon="4.61656">
        <ele>365.39999389648</ele>
        <time>2020-10-09T09:06:06.001Z</time>
      </trkpt>
      <trkpt lat="45.81448" lon="4.6165">
        <ele>364.20001220703</ele>
        <time>2020-10-09T09:06:14.627Z</time>
      </trkpt>
      <trkpt lat="45.81454" lon="4.61641">
        <ele>363.79998779297</ele>
        <time>2020-10-09T09:06:23.256Z</time>
      </trkpt>
      <trkpt lat="45.81461" lon="4.6163">
        <ele>363</ele>
        <time>2020-10-09T09:06:31.890Z</time>
      </trkpt>
      <trkpt lat="45.81468" lon="4.61619">
        <ele>362.20001220703</ele>
        <time>2020-10-09T09:06:40.528Z</time>
      </trkpt>
      <trkpt lat="45.81476" lon="4.61606">
        <ele>360.60000610352</ele>
        <time>2020-10-09T09:06:49.171Z</time>
      </trkpt>
      <trkpt lat="45.81484" lon="4.61594">
        <ele>359.60000610352</ele>
        <time>2020-10-09T09:06:57.819Z</time>
      </trkpt>
      <trkpt lat="45.81486" lon="4.6159">
        <ele>359.20001220703</ele>
        <time>2020-10-09T09:07:06.469Z</time>
      </trkpt>
      <trkpt lat="45.81491" lon="4.61579">
        <ele>358</ele>
        <time>2020-10-09T09:07:15.123Z</time>
      </trkpt>
      <trkpt lat="45.81494" lon="4.61574">
        <ele>357.39999389648</ele>
        <time>2020-10-09T09:07:23.779Z</time>
      </trkpt>
      <trkpt lat="45.81495" lon="4.61571">
        <ele>357</ele>
        <time>2020-10-09T09:07:32.436Z</time>
      </trkpt>
      <trkpt lat="45.81498" lon="4.61567">
        <ele>355.79998779297</ele>
        <time>2020-10-09T09:07:41.094Z</time>
      </trkpt>
      <trkpt lat="45.81502" lon="4.61559">
        <ele>354.20001220703</ele>
        <time>2020-10-09T09:07:49.755Z</time>
      </trkpt>
      <trkpt lat="45.81503" lon="4.61556">
        <ele>354</ele>
        <time>2020-10-09T09:07:58.417Z</time>
      </trkpt>
      <trkpt lat="45.81508" lon="4.61546">
        <ele>353</ele>
        <time>2020-10-09T09:08:07.083Z</time>
      </trkpt>
      <trkpt lat="45.81513" lon="4.61536">
        <ele>351.79998779297</ele>
        <time>2020-10-09T09:08:15.753Z</time>
      </trkpt>
      <trkpt lat="45.81515" lon="4.61533">
        <ele>351.20001220703</ele>
        <time>2020-10-09T09:08:24.424Z</time>
      </trkpt>
      <trkpt lat="45.81518" lon="4.61528">
        <ele>350.60000610352</ele>
        <time>2020-10-09T09:08:33.097Z</time>
      </trkpt>
      <trkpt lat="45.81523" lon="4.61521">
        <ele>349.39999389648</ele>
        <time>2020-10-09T09:08:41.773Z</time>
      </trkpt>
      <trkpt lat="45.81526" lon="4.61517">
        <ele>349</ele>
        <time>2020-10-09T09:08:50.451Z</time>
      </trkpt>
      <trkpt lat="45.81534" lon="4.61509">
        <ele>348.20001220703</ele>
        <time>2020-10-09T09:08:59.133Z</time>
      </trkpt>
      <trkpt lat="45.81539" lon="4.61506">
        <ele>347.60000610352</ele>
        <time>2020-10-09T09:09:07.817Z</time>
      </trkpt>
      <trkpt lat="45.81542" lon="4.61504">
        <ele>347.20001220703</ele>
        <time>2020-10-09T09:09:16.503Z</time>
      </trkpt>
      <trkpt lat="45.81551" lon="4.61502">
        <ele>345.79998779297</ele>
        <time>2020-10-09T09:09:25.192Z</time>
      </trkpt>
      <trkpt lat="45.81557" lon="4.61506">
        <ele>344.39999389648</ele>
        <time>2020-10-09T09:09:33.884Z</time>
      </trkpt>
      <trkpt lat="45.81565" lon="4.61513">
        <ele>343.39999389648</ele>
        <time>2020-10-09T09:09:42.580Z</time>
      </trkpt>
      <trkpt lat="45.81568" lon="4.61517">
        <ele>343</ele>
        <time>2020-10-09T09:09:51.278Z</time>
      </trkpt>
      <trkpt lat="45.81582" lon="4.61531">
        <ele>342.20001220703</ele>
        <time>2020-10-09T09:09:59.983Z</time>
      </trkpt>
      <trkpt lat="45.81585" lon="4.61534">
        <ele>342</ele>
        <time>2020-10-09T09:10:08.690Z</time>
      </trkpt>
      <trkpt lat="45.81594" lon="4.61539">
        <ele>341.60000610352</ele>
        <time>2020-10-09T09:10:17.401Z</time>
      </trkpt>
      <trkpt lat="45.81598" lon="4.61538">
        <ele>341.39999389648</ele>
        <time>2020-10-09T09:10:26.114Z</time>
      </trkpt>
      <trkpt lat="45.81606" lon="4.61534">
        <ele>341.20001220703</ele>
        <time>2020-10-09T09:10:34.831Z</time>
      </trkpt>
      <trkpt lat="45.81623" lon="4.61525">
        <ele>340.79998779297</ele>
        <time>2020-10-09T09:10:43.555Z</time>
      </trkpt>
      <trkpt lat="45.81625" lon="4.61523">
        <ele>340.79998779297</ele>
        <time>2020-10-09T09:10:52.280Z</time>
      </trkpt>
      <trkpt lat="45.81627" lon="4.61523">
        <ele>341.39999389648</ele>
        <time>2020-10-09T09:11:01.006Z</time>
      </trkpt>
      <trkpt lat="45.81627" lon="4.61523">
        <ele>341.60000610352</ele>
        <time>2020-10-09T09:11:09.732Z</time>
      </trkpt>
      <trkpt lat="45.81628" lon="4.61521">
        <ele>341.60000610352</ele>
        <time>2020-10-09T09:11:18.459Z</time>
      </trkpt>
      <trkpt lat="45.81638" lon="4.6151">
        <ele>341.60000610352</ele>
        <time>2020-10-09T09:11:27.191Z</time>
      </trkpt>
      <trkpt lat="45.81656" lon="4.61486">
        <ele>341.39999389648</ele>
        <time>2020-10-09T09:11:35.933Z</time>
      </trkpt>
      <trkpt lat="45.8168" lon="4.61455">
        <ele>340</ele>
        <time>2020-10-09T09:11:44.689Z</time>
      </trkpt>
      <trkpt lat="45.81683" lon="4.61451">
        <ele>340</ele>
        <time>2020-10-09T09:11:53.447Z</time>
      </trkpt>
      <trkpt lat="45.81696" lon="4.61434">
        <ele>339.79998779297</ele>
        <time>2020-10-09T09:12:02.212Z</time>
      </trkpt>
      <trkpt lat="45.81707" lon="4.61421">
        <ele>341</ele>
        <time>2020-10-09T09:12:10.984Z</time>
      </trkpt>
      <trkpt lat="45.81708" lon="4.61418">
        <ele>341.20001220703</ele>
        <time>2020-10-09T09:12:19.757Z</time>
      </trkpt>
      <trkpt lat="45.81709" lon="4.61417">
        <ele>342.20001220703</ele>
        <time>2020-10-09T09:12:28.530Z</time>
      </trkpt>
      <trkpt lat="45.81709" lon="4.61417">
        <ele>342.39999389648</ele>
        <time>2020-10-09T09:12:37.303Z</time>
      </trkpt>
      <trkpt lat="45.8171" lon="4.61415">
        <ele>342.60000610352</ele>
        <time>2020-10-09T09:12:46.077Z</time>
      </trkpt>
      <trkpt lat="45.81712" lon="4.61413">
        <ele>342.60000610352</ele>
        <time>2020-10-09T09:12:54.852Z</time>
      </trkpt>
      <trkpt lat="45.81724" lon="4.61396">
        <ele>342.60000610352</ele>
        <time>2020-10-09T09:13:03.634Z</time>
      </trkpt>
      <trkpt lat="45.81749" lon="4.61363">
        <ele>341.79998779297</ele>
        <time>2020-10-09T09:13:12.430Z</time>
      </trkpt>
      <trkpt lat="45.81752" lon="4.61358">
        <ele>341.20001220703</ele>
        <time>2020-10-09T09:13:21.229Z</time>
      </trkpt>
      <trkpt lat="45.81764" lon="4.61343">
        <ele>340</ele>
        <time>2020-10-09T09:13:30.034Z</time>
      </trkpt>
      <trkpt lat="45.81777" lon="4.61332">
        <ele>338.79998779297</ele>
        <time>2020-10-09T09:13:38.846Z</time>
      </trkpt>
      <trkpt lat="45.81793" lon="4.61321">
        <ele>337.39999389648</ele>
        <time>2020-10-09T09:13:47.665Z</time>
      </trkpt>
      <trkpt lat="45.81809" lon="4.61314">
        <ele>336.20001220703</ele>
        <time>2020-10-09T09:13:56.491Z</time>
      </trkpt>
      <trkpt lat="45.81826" lon="4.61307">
        <ele>334.79998779297</ele>
        <time>2020-10-09T09:14:05.325Z</time>
      </trkpt>
      <trkpt lat="45.81837" lon="4.61303">
        <ele>333.39999389648</ele>
        <time>2020-10-09T09:14:14.164Z</time>
      </trkpt>
      <trkpt lat="45.81851" lon="4.613">
        <ele>332.20001220703</ele>
        <time>2020-10-09T09:14:23.009Z</time>
      </trkpt>
      <trkpt lat="45.81874" lon="4.61296">
        <ele>331</ele>
        <time>2020-10-09T09:14:31.864Z</time>
      </trkpt>
      <trkpt lat="45.81898" lon="4.61294">
        <ele>330.20001220703</ele>
        <time>2020-10-09T09:14:40.729Z</time>
      </trkpt>
      <trkpt lat="45.81907" lon="4.61293">
        <ele>329.79998779297</ele>
        <time>2020-10-09T09:14:49.597Z</time>
      </trkpt>
      <trkpt lat="45.81924" lon="4.61291">
        <ele>328.60000610352</ele>
        <time>2020-10-09T09:14:58.473Z</time>
      </trkpt>
      <trkpt lat="45.81932" lon="4.6129">
        <ele>327.39999389648</ele>
        <time>2020-10-09T09:15:07.352Z</time>
      </trkpt>
      <trkpt lat="45.81948" lon="4.61289">
        <ele>326.20001220703</ele>
        <time>2020-10-09T09:15:16.238Z</time>
      </trkpt>
      <trkpt lat="45.81956" lon="4.61288">
        <ele>325.39999389648</ele>
        <time>2020-10-09T09:15:25.127Z</time>
      </trkpt>
      <trkpt lat="45.81963" lon="4.61287">
        <ele>324.79998779297</ele>
        <time>2020-10-09T09:15:34.020Z</time>
      </trkpt>
      <trkpt lat="45.81978" lon="4.61285">
        <ele>323.20001220703</ele>
        <time>2020-10-09T09:15:42.919Z</time>
      </trkpt>
      <trkpt lat="45.81986" lon="4.61285">
        <ele>322.39999389648</ele>
        <time>2020-10-09T09:15:51.821Z</time>
      </trkpt>
      <trkpt lat="45.81994" lon="4.61286">
        <ele>321.79998779297</ele>
        <time>2020-10-09T09:16:00.727Z</time>
      </trkpt>
      <trkpt lat="45.8201" lon="4.61288">
        <ele>320</ele>
        <time>2020-10-09T09:16:09.640Z</time>
      </trkpt>
      <trkpt lat="45.82024" lon="4.61291">
        <ele>318.39999389648</ele>
        <time>2020-10-09T09:16:18.559Z</time>
      </trkpt>
      <trkpt lat="45.82037" lon="4.61293">
        <ele>316.60000610352</ele>
        <time>2020-10-09T09:16:27.483Z</time>
      </trkpt>
      <trkpt lat="45.82049" lon="4.61296">
        <ele>315.20001220703</ele>
        <time>2020-10-09T09:16:36.413Z</time>
      </trkpt>
      <trkpt lat="45.82069" lon="4.61299">
        <ele>313.60000610352</ele>
        <time>2020-10-09T09:16:45.351Z</time>
      </trkpt>
      <trkpt lat="45.82075" lon="4.613">
        <ele>313.39999389648</ele>
        <time>2020-10-09T09:16:54.292Z</time>
      </trkpt>
      <trkpt lat="45.82088" lon="4.61303">
        <ele>312.39999389648</ele>
        <time>2020-10-09T09:17:03.238Z</time>
      </trkpt>
      <trkpt lat="45.82107" lon="4.61306">
        <ele>311.20001220703</ele>
        <time>2020-10-09T09:17:12.192Z</time>
      </trkpt>
      <trkpt lat="45.82119" lon="4.61309">
        <ele>310</ele>
        <time>2020-10-09T09:17:21.152Z</time>
      </trkpt>
      <trkpt lat="45.82126" lon="4.61309">
        <ele>308.60000610352</ele>
        <time>2020-10-09T09:17:30.114Z</time>
      </trkpt>
      <trkpt lat="45.82145" lon="4.61312">
        <ele>307.20001220703</ele>
        <time>2020-10-09T09:17:39.085Z</time>
      </trkpt>
      <trkpt lat="45.82157" lon="4.61314">
        <ele>306.20001220703</ele>
        <time>2020-10-09T09:17:48.061Z</time>
      </trkpt>
      <trkpt lat="45.8217" lon="4.61316">
        <ele>305</ele>
        <time>2020-10-09T09:17:57.043Z</time>
      </trkpt>
      <trkpt lat="45.82184" lon="4.61317">
        <ele>303.79998779297</ele>
        <time>2020-10-09T09:18:06.030Z</time>
      </trkpt>
      <trkpt lat="45.82197" lon="4.61318">
        <ele>302.39999389648</ele>
        <time>2020-10-09T09:18:15.023Z</time>
      </trkpt>
      <trkpt lat="45.8221" lon="4.61318">
        <ele>301</ele>
        <time>2020-10-09T09:18:24.021Z</time>
      </trkpt>
      <trkpt lat="45.82229" lon="4.61321">
        <ele>299.20001220703</ele>
        <time>2020-10-09T09:18:33.028Z</time>
      </trkpt>
      <trkpt lat="45.82235" lon="4.61322">
        <ele>298.39999389648</ele>
        <time>2020-10-09T09:18:42.037Z</time>
      </trkpt>
      <trkpt lat="45.82241" lon="4.61324">
        <ele>298</ele>
        <time>2020-10-09T09:18:51.049Z</time>
      </trkpt>
      <trkpt lat="45.82253" lon="4.61329">
        <ele>296.79998779297</ele>
        <time>2020-10-09T09:19:00.066Z</time>
      </trkpt>
      <trkpt lat="45.82259" lon="4.61333">
        <ele>296.20001220703</ele>
        <time>2020-10-09T09:19:09.086Z</time>
      </trkpt>
      <trkpt lat="45.82264" lon="4.61338">
        <ele>295.39999389648</ele>
        <time>2020-10-09T09:19:18.109Z</time>
      </trkpt>
      <trkpt lat="45.82276" lon="4.61346">
        <ele>294.20001220703</ele>
        <time>2020-10-09T09:19:27.137Z</time>
      </trkpt>
      <trkpt lat="45.82301" lon="4.61365">
        <ele>293</ele>
        <time>2020-10-09T09:19:36.177Z</time>
      </trkpt>
      <trkpt lat="45.82322" lon="4.61391">
        <ele>291.79998779297</ele>
        <time>2020-10-09T09:19:45.229Z</time>
      </trkpt>
      <trkpt lat="45.82326" lon="4.61399">
        <ele>291.39999389648</ele>
        <time>2020-10-09T09:19:54.284Z</time>
      </trkpt>
      <trkpt lat="45.82338" lon="4.61423">
        <ele>290.79998779297</ele>
        <time>2020-10-09T09:20:03.348Z</time>
      </trkpt>
      <trkpt lat="45.82344" lon="4.6144">
        <ele>289.79998779297</ele>
        <time>2020-10-09T09:20:12.417Z</time>
      </trkpt>
      <trkpt lat="45.82346" lon="4.61447">
        <ele>289.60000610352</ele>
        <time>2020-10-09T09:20:21.489Z</time>
      </trkpt>
      <trkpt lat="45.82349" lon="4.61467">
        <ele>289.20001220703</ele>
        <time>2020-10-09T09:20:30.567Z</time>
      </trkpt>
      <trkpt lat="45.82344" lon="4.61487">
        <ele>289</ele>
        <time>2020-10-09T09:20:39.651Z</time>
      </trkpt>
      <trkpt lat="45.82343" lon="4.6149">
        <ele>289</ele>
        <time>2020-10-09T09:20:48.736Z</time>
        <extensions>
          <visugpx:TrkExtension xmlns:visugpx="https://www.visugpx.com/editgpx/">
            <visugpx:node>5</visugpx:node>
            </visugpx:TrkExtension>
        </extensions>
      </trkpt>
      <trkpt lat="45.82334" lon="4.61499">
        <ele>275.8</ele>
      </trkpt>
      <trkpt lat="45.82327" lon="4.61513">
        <ele>279</ele>
      </trkpt>
      <trkpt lat="45.82319" lon="4.61528">
        <ele>280.7</ele>
      </trkpt>
      <trkpt lat="45.82314" lon="4.6155">
        <ele>281.2</ele>
      </trkpt>
      <trkpt lat="45.82315" lon="4.61568">
        <ele>280.4</ele>
      </trkpt>
      <trkpt lat="45.82318" lon="4.61582">
        <ele>279.3</ele>
      </trkpt>
      <trkpt lat="45.82325" lon="4.61591">
        <ele>280.4</ele>
      </trkpt>
      <trkpt lat="45.82335" lon="4.61594">
        <ele>278.4</ele>
      </trkpt>
      <trkpt lat="45.82357" lon="4.61597">
        <ele>280</ele>
      </trkpt>
      <trkpt lat="45.82374" lon="4.61603">
        <ele>280.6</ele>
      </trkpt>
      <trkpt lat="45.82421" lon="4.61629">
        <ele>279.2</ele>
      </trkpt>
      <trkpt lat="45.8244" lon="4.61646">
        <ele>280.3</ele>
      </trkpt>
      <trkpt lat="45.82459" lon="4.61673">
        <ele>286.5</ele>
      </trkpt>
      <trkpt lat="45.8247" lon="4.61694">
        <ele>286.5</ele>
      </trkpt>
      <trkpt lat="45.82478" lon="4.6172">
        <ele>287.6</ele>
      </trkpt>
      <trkpt lat="45.82484" lon="4.61762">
        <ele>292.8</ele>
      </trkpt>
      <trkpt lat="45.82489" lon="4.61789">
        <ele>295.2</ele>
      </trkpt>
      <trkpt lat="45.82504" lon="4.61844">
        <ele>294.5</ele>
        <extensions>
          <visugpx:TrkExtension xmlns:visugpx="https://www.visugpx.com/editgpx/">
            <visugpx:node>6</visugpx:node>
            </visugpx:TrkExtension>
        </extensions>
      </trkpt>
      <trkpt lat="45.82506" lon="4.61854">
        <ele>294.5</ele>
      </trkpt>
      <trkpt lat="45.82512" lon="4.61897">
        <ele>297.9</ele>
      </trkpt>
      <trkpt lat="45.82517" lon="4.61956">
        <ele>302.1</ele>
      </trkpt>
      <trkpt lat="45.82527" lon="4.62043">
        <ele>308.6</ele>
      </trkpt>
      <trkpt lat="45.82531" lon="4.62057">
        <ele>309.1</ele>
      </trkpt>
      <trkpt lat="45.82546" lon="4.62115">
        <ele>312.6</ele>
      </trkpt>
      <trkpt lat="45.82555" lon="4.62148">
        <ele>312.5</ele>
      </trkpt>
      <trkpt lat="45.8256" lon="4.62212">
        <ele>314.6</ele>
      </trkpt>
      <trkpt lat="45.82563" lon="4.62221">
        <ele>314.4</ele>
      </trkpt>
      <trkpt lat="45.82569" lon="4.62227">
        <ele>313.9</ele>
      </trkpt>
      <trkpt lat="45.82593" lon="4.62246">
        <ele>310.3</ele>
      </trkpt>
      <trkpt lat="45.82596" lon="4.62249">
        <ele>310.2</ele>
      </trkpt>
      <trkpt lat="45.8261" lon="4.62253">
        <ele>311.3</ele>
      </trkpt>
      <trkpt lat="45.82612" lon="4.62253">
        <ele>311.3</ele>
      </trkpt>
      <trkpt lat="45.8262" lon="4.62251">
        <ele>311.3</ele>
      </trkpt>
      <trkpt lat="45.82654" lon="4.62235">
        <ele>309.6</ele>
      </trkpt>
      <trkpt lat="45.82661" lon="4.62232">
        <ele>309.6</ele>
      </trkpt>
      <trkpt lat="45.82669" lon="4.62234">
        <ele>308.1</ele>
      </trkpt>
      <trkpt lat="45.82673" lon="4.62239">
        <ele>308.5</ele>
      </trkpt>
      <trkpt lat="45.8268" lon="4.62242">
        <ele>308.1</ele>
      </trkpt>
      <trkpt lat="45.82685" lon="4.62247">
        <ele>307.8</ele>
      </trkpt>
      <trkpt lat="45.82688" lon="4.6225">
        <ele>307.5</ele>
        <extensions>
          <visugpx:TrkExtension xmlns:visugpx="https://www.visugpx.com/editgpx/">
            <visugpx:node>7</visugpx:node>
            </visugpx:TrkExtension>
        </extensions>
      </trkpt>
      <trkpt lat="45.82698" lon="4.62258">
        <ele>307.9</ele>
      </trkpt>
      <trkpt lat="45.82694" lon="4.62266">
        <ele>308.1</ele>
      </trkpt>
      <trkpt lat="45.82687" lon="4.62288">
        <ele>308.2</ele>
      </trkpt>
      <trkpt lat="45.8267" lon="4.6235">
        <ele>309.1</ele>
      </trkpt>
      <trkpt lat="45.82663" lon="4.62375">
        <ele>312.1</ele>
      </trkpt>
      <trkpt lat="45.82646" lon="4.6245">
        <ele>314.5</ele>
      </trkpt>
      <trkpt lat="45.82638" lon="4.62472">
        <ele>315.2</ele>
        <extensions>
          <visugpx:TrkExtension xmlns:visugpx="https://www.visugpx.com/editgpx/">
            <visugpx:node>12</visugpx:node>
            </visugpx:TrkExtension>
        </extensions>
      </trkpt>
    </trkseg>
  </trk>
</gpx>